<?xml version="1.0" encoding="UTF-8" standalone="no" ?>
<gpx xmlns="http://www.topografix.com/GPX/1/1" xmlns:xsi="http://www.w3.org/2001/XMLSchema-instance" xsi:schemaLocation="http://www.topografix.com/GPX/1/1 http://www.topografix.com/GPX/1/1/gpx.xsd" version="1.1" creator="VisuGPX - https://www.visugpx.com">
  <metadata>
    <name>83-M-Sillans</name>
    <desc><![CDATA[83-M-Sillans la Cascade : parfum de romarin]]></desc>
  </metadata>
  <trk>
    <name><![CDATA[2014-02-12-sillans modif]]></name>
    <trkseg>
      <trkpt lat="43.56703" lon="6.17778">
        <ele>379.2</ele>
        <time>2014-02-12T13:00:37Z</time>
      </trkpt>
      <trkpt lat="43.56698" lon="6.17787">
        <ele>378.1</ele>
        <time>2014-02-12T13:00:41Z</time>
      </trkpt>
      <trkpt lat="43.56697" lon="6.17799">
        <ele>379.5</ele>
        <time>2014-02-12T13:02:17Z</time>
      </trkpt>
      <trkpt lat="43.56697" lon="6.17799">
        <ele>379.7</ele>
        <time>2014-02-12T13:02:18Z</time>
      </trkpt>
      <trkpt lat="43.56695" lon="6.17811">
        <ele>379.9</ele>
        <time>2014-02-12T13:04:15Z</time>
      </trkpt>
      <trkpt lat="43.56688" lon="6.17819">
        <ele>380.4</ele>
        <time>2014-02-12T13:06:33Z</time>
      </trkpt>
      <trkpt lat="43.56674" lon="6.1783">
        <ele>380</ele>
        <time>2014-02-12T13:08:10Z</time>
      </trkpt>
      <trkpt lat="43.56674" lon="6.17831">
        <ele>379.9</ele>
        <time>2014-02-12T13:08:11Z</time>
      </trkpt>
      <trkpt lat="43.56677" lon="6.17853">
        <ele>378.2</ele>
        <time>2014-02-12T13:08:29Z</time>
      </trkpt>
      <trkpt lat="43.56679" lon="6.17864">
        <ele>377.6</ele>
        <time>2014-02-12T13:08:36Z</time>
      </trkpt>
      <trkpt lat="43.56679" lon="6.17876">
        <ele>376.7</ele>
        <time>2014-02-12T13:08:43Z</time>
      </trkpt>
      <trkpt lat="43.56678" lon="6.17888">
        <ele>376.5</ele>
        <time>2014-02-12T13:08:52Z</time>
      </trkpt>
      <trkpt lat="43.56678" lon="6.17899">
        <ele>375.9</ele>
        <time>2014-02-12T13:09:19Z</time>
      </trkpt>
      <trkpt lat="43.56678" lon="6.179">
        <ele>376</ele>
        <time>2014-02-12T13:09:20Z</time>
      </trkpt>
      <trkpt lat="43.56667" lon="6.17915">
        <ele>374.1</ele>
        <time>2014-02-12T13:09:34Z</time>
      </trkpt>
      <trkpt lat="43.56663" lon="6.17924">
        <ele>373.7</ele>
        <time>2014-02-12T13:09:41Z</time>
      </trkpt>
      <trkpt lat="43.56656" lon="6.17932">
        <ele>374</ele>
        <time>2014-02-12T13:09:48Z</time>
      </trkpt>
      <trkpt lat="43.5665" lon="6.1794">
        <ele>372.2</ele>
        <time>2014-02-12T13:09:55Z</time>
      </trkpt>
      <trkpt lat="43.56643" lon="6.17947">
        <ele>371.7</ele>
        <time>2014-02-12T13:10:02Z</time>
      </trkpt>
      <trkpt lat="43.56636" lon="6.17955">
        <ele>370.4</ele>
        <time>2014-02-12T13:10:09Z</time>
      </trkpt>
      <trkpt lat="43.5663" lon="6.17962">
        <ele>370</ele>
        <time>2014-02-12T13:10:16Z</time>
      </trkpt>
      <trkpt lat="43.56623" lon="6.1797">
        <ele>371</ele>
        <time>2014-02-12T13:10:25Z</time>
      </trkpt>
      <trkpt lat="43.56622" lon="6.17971">
        <ele>370.7</ele>
        <time>2014-02-12T13:10:26Z</time>
      </trkpt>
      <trkpt lat="43.56606" lon="6.17975">
        <ele>370.1</ele>
        <time>2014-02-12T13:10:40Z</time>
      </trkpt>
      <trkpt lat="43.56598" lon="6.17977">
        <ele>369</ele>
        <time>2014-02-12T13:10:47Z</time>
      </trkpt>
      <trkpt lat="43.5659" lon="6.17977">
        <ele>369.2</ele>
        <time>2014-02-12T13:10:54Z</time>
      </trkpt>
      <trkpt lat="43.56582" lon="6.17978">
        <ele>368.6</ele>
        <time>2014-02-12T13:11:01Z</time>
      </trkpt>
      <trkpt lat="43.56574" lon="6.17983">
        <ele>368.3</ele>
        <time>2014-02-12T13:11:08Z</time>
      </trkpt>
      <trkpt lat="43.56567" lon="6.17988">
        <ele>367.9</ele>
        <time>2014-02-12T13:11:16Z</time>
      </trkpt>
      <trkpt lat="43.5656" lon="6.17994">
        <ele>367.9</ele>
        <time>2014-02-12T13:11:23Z</time>
      </trkpt>
      <trkpt lat="43.56552" lon="6.17998">
        <ele>367.5</ele>
        <time>2014-02-12T13:11:31Z</time>
      </trkpt>
      <trkpt lat="43.56551" lon="6.17998">
        <ele>367.3</ele>
        <time>2014-02-12T13:11:32Z</time>
      </trkpt>
      <trkpt lat="43.56535" lon="6.17997">
        <ele>367.5</ele>
        <time>2014-02-12T13:11:48Z</time>
      </trkpt>
      <trkpt lat="43.56527" lon="6.17999">
        <ele>366.9</ele>
        <time>2014-02-12T13:11:57Z</time>
      </trkpt>
      <trkpt lat="43.56519" lon="6.18004">
        <ele>366.8</ele>
        <time>2014-02-12T13:12:05Z</time>
      </trkpt>
      <trkpt lat="43.56515" lon="6.18014">
        <ele>367.2</ele>
        <time>2014-02-12T13:12:12Z</time>
      </trkpt>
      <trkpt lat="43.56512" lon="6.18025">
        <ele>366</ele>
        <time>2014-02-12T13:12:19Z</time>
      </trkpt>
      <trkpt lat="43.56509" lon="6.18036">
        <ele>367</ele>
        <time>2014-02-12T13:12:26Z</time>
      </trkpt>
      <trkpt lat="43.56506" lon="6.18047">
        <ele>367.2</ele>
        <time>2014-02-12T13:12:33Z</time>
      </trkpt>
      <trkpt lat="43.56506" lon="6.18049">
        <ele>366.7</ele>
        <time>2014-02-12T13:12:34Z</time>
      </trkpt>
      <trkpt lat="43.56503" lon="6.1807">
        <ele>366.5</ele>
        <time>2014-02-12T13:12:47Z</time>
      </trkpt>
      <trkpt lat="43.56501" lon="6.18081">
        <ele>366.5</ele>
        <time>2014-02-12T13:12:54Z</time>
      </trkpt>
      <trkpt lat="43.565" lon="6.18093">
        <ele>366.7</ele>
        <time>2014-02-12T13:13:02Z</time>
      </trkpt>
      <trkpt lat="43.56497" lon="6.18105">
        <ele>366.1</ele>
        <time>2014-02-12T13:13:10Z</time>
      </trkpt>
      <trkpt lat="43.56495" lon="6.18115">
        <ele>366.3</ele>
        <time>2014-02-12T13:13:17Z</time>
      </trkpt>
      <trkpt lat="43.56494" lon="6.18126">
        <ele>366.8</ele>
        <time>2014-02-12T13:13:24Z</time>
      </trkpt>
      <trkpt lat="43.56492" lon="6.18137">
        <ele>367.2</ele>
        <time>2014-02-12T13:13:31Z</time>
      </trkpt>
      <trkpt lat="43.5649" lon="6.18148">
        <ele>367.7</ele>
        <time>2014-02-12T13:13:38Z</time>
      </trkpt>
      <trkpt lat="43.5649" lon="6.18149">
        <ele>367.5</ele>
        <time>2014-02-12T13:13:39Z</time>
      </trkpt>
      <trkpt lat="43.56486" lon="6.1817">
        <ele>366.8</ele>
        <time>2014-02-12T13:13:52Z</time>
      </trkpt>
      <trkpt lat="43.56484" lon="6.18182">
        <ele>366.2</ele>
        <time>2014-02-12T13:14:00Z</time>
      </trkpt>
      <trkpt lat="43.56482" lon="6.18193">
        <ele>367</ele>
        <time>2014-02-12T13:14:08Z</time>
      </trkpt>
      <trkpt lat="43.56479" lon="6.18204">
        <ele>367.7</ele>
        <time>2014-02-12T13:14:17Z</time>
      </trkpt>
      <trkpt lat="43.56478" lon="6.18216">
        <ele>366.9</ele>
        <time>2014-02-12T13:14:29Z</time>
      </trkpt>
      <trkpt lat="43.56475" lon="6.18227">
        <ele>365.8</ele>
        <time>2014-02-12T13:14:39Z</time>
      </trkpt>
      <trkpt lat="43.56475" lon="6.18228">
        <ele>364.8</ele>
        <time>2014-02-12T13:14:40Z</time>
      </trkpt>
      <trkpt lat="43.56462" lon="6.18242">
        <ele>363.7</ele>
        <time>2014-02-12T13:14:54Z</time>
      </trkpt>
      <trkpt lat="43.56458" lon="6.18253">
        <ele>363.4</ele>
        <time>2014-02-12T13:15:01Z</time>
      </trkpt>
      <trkpt lat="43.56456" lon="6.18265">
        <ele>362.8</ele>
        <time>2014-02-12T13:15:09Z</time>
      </trkpt>
      <trkpt lat="43.56453" lon="6.18276">
        <ele>362.5</ele>
        <time>2014-02-12T13:15:14Z</time>
      </trkpt>
      <trkpt lat="43.56445" lon="6.18283">
        <ele>361.9</ele>
        <time>2014-02-12T13:15:21Z</time>
      </trkpt>
      <trkpt lat="43.56437" lon="6.1828">
        <ele>360.7</ele>
        <time>2014-02-12T13:15:29Z</time>
      </trkpt>
      <trkpt lat="43.56435" lon="6.18269">
        <ele>361.6</ele>
        <time>2014-02-12T13:15:38Z</time>
      </trkpt>
      <trkpt lat="43.56434" lon="6.18258">
        <ele>362.2</ele>
        <time>2014-02-12T13:15:46Z</time>
      </trkpt>
      <trkpt lat="43.56434" lon="6.18256">
        <ele>361.7</ele>
        <time>2014-02-12T13:15:47Z</time>
      </trkpt>
      <trkpt lat="43.5643" lon="6.18236">
        <ele>362.3</ele>
        <time>2014-02-12T13:16:02Z</time>
      </trkpt>
      <trkpt lat="43.56429" lon="6.18226">
        <ele>361.4</ele>
        <time>2014-02-12T13:16:09Z</time>
      </trkpt>
      <trkpt lat="43.56428" lon="6.18213">
        <ele>362.1</ele>
        <time>2014-02-12T13:16:17Z</time>
      </trkpt>
      <trkpt lat="43.56426" lon="6.18203">
        <ele>362.5</ele>
        <time>2014-02-12T13:16:25Z</time>
      </trkpt>
      <trkpt lat="43.56425" lon="6.18192">
        <ele>361.9</ele>
        <time>2014-02-12T13:16:31Z</time>
      </trkpt>
      <trkpt lat="43.56419" lon="6.18184">
        <ele>361.5</ele>
        <time>2014-02-12T13:16:39Z</time>
      </trkpt>
      <trkpt lat="43.56414" lon="6.18194">
        <ele>360.2</ele>
        <time>2014-02-12T13:16:54Z</time>
      </trkpt>
      <trkpt lat="43.56414" lon="6.18195">
        <ele>360.2</ele>
        <time>2014-02-12T13:16:55Z</time>
      </trkpt>
      <trkpt lat="43.56405" lon="6.18213">
        <ele>360.2</ele>
        <time>2014-02-12T13:17:11Z</time>
      </trkpt>
      <trkpt lat="43.56397" lon="6.18218">
        <ele>361</ele>
        <time>2014-02-12T13:17:19Z</time>
      </trkpt>
      <trkpt lat="43.56388" lon="6.1822">
        <ele>360.2</ele>
        <time>2014-02-12T13:17:26Z</time>
      </trkpt>
      <trkpt lat="43.5638" lon="6.18222">
        <ele>359.9</ele>
        <time>2014-02-12T13:17:33Z</time>
      </trkpt>
      <trkpt lat="43.56372" lon="6.18224">
        <ele>358.8</ele>
        <time>2014-02-12T13:17:43Z</time>
      </trkpt>
      <trkpt lat="43.56364" lon="6.18228">
        <ele>357</ele>
        <time>2014-02-12T13:17:52Z</time>
      </trkpt>
      <trkpt lat="43.56356" lon="6.18233">
        <ele>356.2</ele>
        <time>2014-02-12T13:17:59Z</time>
      </trkpt>
      <trkpt lat="43.56355" lon="6.18234">
        <ele>356.4</ele>
        <time>2014-02-12T13:18:00Z</time>
      </trkpt>
      <trkpt lat="43.56346" lon="6.18251">
        <ele>354.2</ele>
        <time>2014-02-12T13:18:18Z</time>
      </trkpt>
      <trkpt lat="43.56342" lon="6.18262">
        <ele>351.2</ele>
        <time>2014-02-12T13:18:34Z</time>
      </trkpt>
      <trkpt lat="43.56338" lon="6.18272">
        <ele>350.7</ele>
        <time>2014-02-12T13:18:43Z</time>
      </trkpt>
      <trkpt lat="43.56333" lon="6.18281">
        <ele>349</ele>
        <time>2014-02-12T13:18:50Z</time>
      </trkpt>
      <trkpt lat="43.56326" lon="6.1829">
        <ele>347.6</ele>
        <time>2014-02-12T13:18:59Z</time>
      </trkpt>
      <trkpt lat="43.56322" lon="6.18299">
        <ele>346.7</ele>
        <time>2014-02-12T13:19:08Z</time>
      </trkpt>
      <trkpt lat="43.56322" lon="6.18301">
        <ele>346.4</ele>
        <time>2014-02-12T13:19:09Z</time>
      </trkpt>
      <trkpt lat="43.56313" lon="6.18319">
        <ele>343.7</ele>
        <time>2014-02-12T13:19:23Z</time>
      </trkpt>
      <trkpt lat="43.56307" lon="6.18327">
        <ele>341.9</ele>
        <time>2014-02-12T13:19:32Z</time>
      </trkpt>
      <trkpt lat="43.56303" lon="6.18338">
        <ele>339.1</ele>
        <time>2014-02-12T13:19:43Z</time>
      </trkpt>
      <trkpt lat="43.56301" lon="6.1835">
        <ele>336.2</ele>
        <time>2014-02-12T13:19:52Z</time>
      </trkpt>
      <trkpt lat="43.56296" lon="6.18359">
        <ele>336.8</ele>
        <time>2014-02-12T13:19:59Z</time>
      </trkpt>
      <trkpt lat="43.56288" lon="6.18365">
        <ele>336.3</ele>
        <time>2014-02-12T13:20:07Z</time>
      </trkpt>
      <trkpt lat="43.56279" lon="6.18366">
        <ele>336.2</ele>
        <time>2014-02-12T13:20:15Z</time>
      </trkpt>
      <trkpt lat="43.56278" lon="6.18366">
        <ele>336.6</ele>
        <time>2014-02-12T13:20:16Z</time>
      </trkpt>
      <trkpt lat="43.56262" lon="6.1837">
        <ele>336.1</ele>
        <time>2014-02-12T13:20:36Z</time>
      </trkpt>
      <trkpt lat="43.56254" lon="6.18372">
        <ele>336.1</ele>
        <time>2014-02-12T13:20:46Z</time>
      </trkpt>
      <trkpt lat="43.56249" lon="6.18381">
        <ele>336.2</ele>
        <time>2014-02-12T13:20:54Z</time>
      </trkpt>
      <trkpt lat="43.56248" lon="6.18393">
        <ele>336</ele>
        <time>2014-02-12T13:21:04Z</time>
      </trkpt>
      <trkpt lat="43.56248" lon="6.18404">
        <ele>336</ele>
        <time>2014-02-12T13:21:14Z</time>
      </trkpt>
      <trkpt lat="43.56249" lon="6.18416">
        <ele>336</ele>
        <time>2014-02-12T13:21:23Z</time>
      </trkpt>
      <trkpt lat="43.56249" lon="6.18417">
        <ele>336.4</ele>
        <time>2014-02-12T13:21:24Z</time>
      </trkpt>
      <trkpt lat="43.56258" lon="6.18436">
        <ele>335.1</ele>
        <time>2014-02-12T13:21:46Z</time>
      </trkpt>
      <trkpt lat="43.56266" lon="6.18432">
        <ele>334.5</ele>
        <time>2014-02-12T13:22:02Z</time>
      </trkpt>
      <trkpt lat="43.56275" lon="6.18432">
        <ele>331.2</ele>
        <time>2014-02-12T13:22:17Z</time>
      </trkpt>
      <trkpt lat="43.56279" lon="6.18421">
        <ele>327.8</ele>
        <time>2014-02-12T13:22:33Z</time>
      </trkpt>
      <trkpt lat="43.56279" lon="6.1842">
        <ele>327.4</ele>
        <time>2014-02-12T13:22:34Z</time>
      </trkpt>
      <trkpt lat="43.56293" lon="6.18428">
        <ele>322.5</ele>
        <time>2014-02-12T13:23:08Z</time>
      </trkpt>
      <trkpt lat="43.56298" lon="6.18438">
        <ele>321</ele>
        <time>2014-02-12T13:23:26Z</time>
      </trkpt>
      <trkpt lat="43.56303" lon="6.18448">
        <ele>319.3</ele>
        <time>2014-02-12T13:23:46Z</time>
      </trkpt>
      <trkpt lat="43.56303" lon="6.18448">
        <ele>318.9</ele>
        <time>2014-02-12T13:23:47Z</time>
      </trkpt>
      <trkpt lat="43.56319" lon="6.18455">
        <ele>317.6</ele>
        <time>2014-02-12T13:25:09Z</time>
      </trkpt>
      <trkpt lat="43.56319" lon="6.18455">
        <ele>317.9</ele>
        <time>2014-02-12T13:25:10Z</time>
      </trkpt>
      <trkpt lat="43.56303" lon="6.18455">
        <ele>321.1</ele>
        <time>2014-02-12T13:25:58Z</time>
      </trkpt>
      <trkpt lat="43.56298" lon="6.18445">
        <ele>321.9</ele>
        <time>2014-02-12T13:26:17Z</time>
      </trkpt>
      <trkpt lat="43.56298" lon="6.18444">
        <ele>322</ele>
        <time>2014-02-12T13:26:18Z</time>
      </trkpt>
      <trkpt lat="43.5629" lon="6.18424">
        <ele>326.1</ele>
        <time>2014-02-12T13:26:43Z</time>
      </trkpt>
      <trkpt lat="43.56284" lon="6.18433">
        <ele>331.4</ele>
        <time>2014-02-12T13:27:12Z</time>
      </trkpt>
      <trkpt lat="43.56276" lon="6.18438">
        <ele>334.7</ele>
        <time>2014-02-12T13:27:26Z</time>
      </trkpt>
      <trkpt lat="43.56276" lon="6.18439">
        <ele>334.4</ele>
        <time>2014-02-12T13:27:27Z</time>
      </trkpt>
      <trkpt lat="43.56262" lon="6.18452">
        <ele>335.8</ele>
        <time>2014-02-12T13:28:33Z</time>
      </trkpt>
      <trkpt lat="43.56261" lon="6.18453">
        <ele>335.7</ele>
        <time>2014-02-12T13:28:34Z</time>
      </trkpt>
      <trkpt lat="43.56255" lon="6.18443">
        <ele>337.2</ele>
        <time>2014-02-12T13:30:36Z</time>
      </trkpt>
      <trkpt lat="43.56242" lon="6.18444">
        <ele>343.3</ele>
        <time>2014-02-12T13:32:11Z</time>
      </trkpt>
      <trkpt lat="43.56242" lon="6.18444">
        <ele>343.7</ele>
        <time>2014-02-12T13:32:12Z</time>
      </trkpt>
      <trkpt lat="43.56228" lon="6.18455">
        <ele>348.8</ele>
        <time>2014-02-12T13:32:41Z</time>
      </trkpt>
      <trkpt lat="43.56226" lon="6.18467">
        <ele>348.7</ele>
        <time>2014-02-12T13:32:55Z</time>
      </trkpt>
      <trkpt lat="43.56219" lon="6.18474">
        <ele>348.4</ele>
        <time>2014-02-12T13:33:52Z</time>
      </trkpt>
      <trkpt lat="43.56219" lon="6.18475">
        <ele>348.4</ele>
        <time>2014-02-12T13:33:53Z</time>
      </trkpt>
      <trkpt lat="43.56211" lon="6.1848">
        <ele>349.8</ele>
        <time>2014-02-12T13:35:47Z</time>
      </trkpt>
      <trkpt lat="43.562" lon="6.18497">
        <ele>351.2</ele>
        <time>2014-02-12T13:36:14Z</time>
      </trkpt>
      <trkpt lat="43.56197" lon="6.18508">
        <ele>352.3</ele>
        <time>2014-02-12T13:36:26Z</time>
      </trkpt>
      <trkpt lat="43.56194" lon="6.18519">
        <ele>351.9</ele>
        <time>2014-02-12T13:36:37Z</time>
      </trkpt>
      <trkpt lat="43.56191" lon="6.1853">
        <ele>353.4</ele>
        <time>2014-02-12T13:36:48Z</time>
      </trkpt>
      <trkpt lat="43.56191" lon="6.18531">
        <ele>353.8</ele>
        <time>2014-02-12T13:36:49Z</time>
      </trkpt>
      <trkpt lat="43.56186" lon="6.18552">
        <ele>353.2</ele>
        <time>2014-02-12T13:37:04Z</time>
      </trkpt>
      <trkpt lat="43.56184" lon="6.18564">
        <ele>353.4</ele>
        <time>2014-02-12T13:37:13Z</time>
      </trkpt>
      <trkpt lat="43.56182" lon="6.18576">
        <ele>351.7</ele>
        <time>2014-02-12T13:37:23Z</time>
      </trkpt>
      <trkpt lat="43.56181" lon="6.18588">
        <ele>352.4</ele>
        <time>2014-02-12T13:37:32Z</time>
      </trkpt>
      <trkpt lat="43.56177" lon="6.18598">
        <ele>351.8</ele>
        <time>2014-02-12T13:37:41Z</time>
      </trkpt>
      <trkpt lat="43.56174" lon="6.1861">
        <ele>350.8</ele>
        <time>2014-02-12T13:37:53Z</time>
      </trkpt>
      <trkpt lat="43.56174" lon="6.18611">
        <ele>350</ele>
        <time>2014-02-12T13:37:54Z</time>
      </trkpt>
      <trkpt lat="43.5617" lon="6.18632">
        <ele>350.6</ele>
        <time>2014-02-12T13:38:09Z</time>
      </trkpt>
      <trkpt lat="43.56165" lon="6.18642">
        <ele>351</ele>
        <time>2014-02-12T13:38:18Z</time>
      </trkpt>
      <trkpt lat="43.56159" lon="6.18651">
        <ele>352.5</ele>
        <time>2014-02-12T13:38:26Z</time>
      </trkpt>
      <trkpt lat="43.56154" lon="6.18658">
        <ele>354.3</ele>
        <time>2014-02-12T13:38:33Z</time>
      </trkpt>
      <trkpt lat="43.56147" lon="6.18666">
        <ele>355.4</ele>
        <time>2014-02-12T13:38:41Z</time>
      </trkpt>
      <trkpt lat="43.56143" lon="6.18677">
        <ele>357.1</ele>
        <time>2014-02-12T13:38:51Z</time>
      </trkpt>
      <trkpt lat="43.56138" lon="6.18686">
        <ele>358.2</ele>
        <time>2014-02-12T13:39:00Z</time>
      </trkpt>
      <trkpt lat="43.56138" lon="6.18688">
        <ele>358.2</ele>
        <time>2014-02-12T13:39:01Z</time>
      </trkpt>
      <trkpt lat="43.56129" lon="6.18707">
        <ele>359.2</ele>
        <time>2014-02-12T13:39:19Z</time>
      </trkpt>
      <trkpt lat="43.56126" lon="6.18718">
        <ele>360.1</ele>
        <time>2014-02-12T13:39:29Z</time>
      </trkpt>
      <trkpt lat="43.56123" lon="6.18729">
        <ele>360.5</ele>
        <time>2014-02-12T13:39:38Z</time>
      </trkpt>
      <trkpt lat="43.56117" lon="6.18738">
        <ele>360.8</ele>
        <time>2014-02-12T13:39:46Z</time>
      </trkpt>
      <trkpt lat="43.5611" lon="6.18745">
        <ele>360.3</ele>
        <time>2014-02-12T13:39:53Z</time>
      </trkpt>
      <trkpt lat="43.56105" lon="6.18754">
        <ele>360.7</ele>
        <time>2014-02-12T13:39:59Z</time>
      </trkpt>
      <trkpt lat="43.56102" lon="6.18765">
        <ele>359.1</ele>
        <time>2014-02-12T13:40:07Z</time>
      </trkpt>
      <trkpt lat="43.56102" lon="6.18766">
        <ele>359.4</ele>
        <time>2014-02-12T13:40:08Z</time>
      </trkpt>
      <trkpt lat="43.56093" lon="6.18785">
        <ele>357.7</ele>
        <time>2014-02-12T13:40:24Z</time>
      </trkpt>
      <trkpt lat="43.56089" lon="6.18794">
        <ele>357.4</ele>
        <time>2014-02-12T13:40:31Z</time>
      </trkpt>
      <trkpt lat="43.56084" lon="6.18804">
        <ele>357.1</ele>
        <time>2014-02-12T13:40:38Z</time>
      </trkpt>
      <trkpt lat="43.5608" lon="6.18815">
        <ele>357.8</ele>
        <time>2014-02-12T13:40:47Z</time>
      </trkpt>
      <trkpt lat="43.56077" lon="6.18826">
        <ele>357.4</ele>
        <time>2014-02-12T13:40:56Z</time>
      </trkpt>
      <trkpt lat="43.56074" lon="6.18836">
        <ele>356.5</ele>
        <time>2014-02-12T13:41:05Z</time>
      </trkpt>
      <trkpt lat="43.5607" lon="6.18847">
        <ele>355.1</ele>
        <time>2014-02-12T13:41:12Z</time>
      </trkpt>
      <trkpt lat="43.5607" lon="6.18848">
        <ele>355.3</ele>
        <time>2014-02-12T13:41:13Z</time>
      </trkpt>
      <trkpt lat="43.56063" lon="6.18867">
        <ele>356.4</ele>
        <time>2014-02-12T13:41:30Z</time>
      </trkpt>
      <trkpt lat="43.56058" lon="6.18876">
        <ele>355.7</ele>
        <time>2014-02-12T13:41:38Z</time>
      </trkpt>
      <trkpt lat="43.56052" lon="6.18879">
        <ele>354.9</ele>
        <time>2014-02-12T13:41:44Z</time>
      </trkpt>
      <trkpt lat="43.56043" lon="6.18884">
        <ele>354.8</ele>
        <time>2014-02-12T13:41:52Z</time>
      </trkpt>
      <trkpt lat="43.56042" lon="6.18895">
        <ele>355.6</ele>
        <time>2014-02-12T13:42:03Z</time>
      </trkpt>
      <trkpt lat="43.56041" lon="6.18906">
        <ele>355.7</ele>
        <time>2014-02-12T13:42:12Z</time>
      </trkpt>
      <trkpt lat="43.56037" lon="6.18916">
        <ele>358.3</ele>
        <time>2014-02-12T13:42:25Z</time>
      </trkpt>
      <trkpt lat="43.56037" lon="6.18918">
        <ele>358.5</ele>
        <time>2014-02-12T13:42:26Z</time>
      </trkpt>
      <trkpt lat="43.56036" lon="6.18941">
        <ele>360.9</ele>
        <time>2014-02-12T13:42:52Z</time>
      </trkpt>
      <trkpt lat="43.56032" lon="6.18952">
        <ele>361.6</ele>
        <time>2014-02-12T13:43:06Z</time>
      </trkpt>
      <trkpt lat="43.56029" lon="6.18962">
        <ele>360.8</ele>
        <time>2014-02-12T13:43:23Z</time>
      </trkpt>
      <trkpt lat="43.56024" lon="6.18972">
        <ele>361.6</ele>
        <time>2014-02-12T13:43:41Z</time>
      </trkpt>
      <trkpt lat="43.56024" lon="6.18973">
        <ele>361.5</ele>
        <time>2014-02-12T13:43:42Z</time>
      </trkpt>
      <trkpt lat="43.56019" lon="6.18995">
        <ele>365.1</ele>
        <time>2014-02-12T13:44:14Z</time>
      </trkpt>
      <trkpt lat="43.56017" lon="6.19007">
        <ele>364</ele>
        <time>2014-02-12T13:44:24Z</time>
      </trkpt>
      <trkpt lat="43.56018" lon="6.19019">
        <ele>364.4</ele>
        <time>2014-02-12T13:44:34Z</time>
      </trkpt>
      <trkpt lat="43.56017" lon="6.19031">
        <ele>365.2</ele>
        <time>2014-02-12T13:44:44Z</time>
      </trkpt>
      <trkpt lat="43.56018" lon="6.19032">
        <ele>364.9</ele>
        <time>2014-02-12T13:44:45Z</time>
      </trkpt>
      <trkpt lat="43.56006" lon="6.19048">
        <ele>368.4</ele>
        <time>2014-02-12T13:45:07Z</time>
      </trkpt>
      <trkpt lat="43.56001" lon="6.19058">
        <ele>367.6</ele>
        <time>2014-02-12T13:45:18Z</time>
      </trkpt>
      <trkpt lat="43.55998" lon="6.1907">
        <ele>368.8</ele>
        <time>2014-02-12T13:45:30Z</time>
      </trkpt>
      <trkpt lat="43.55996" lon="6.19081">
        <ele>369.1</ele>
        <time>2014-02-12T13:45:42Z</time>
      </trkpt>
      <trkpt lat="43.55991" lon="6.1909">
        <ele>370.4</ele>
        <time>2014-02-12T13:45:51Z</time>
      </trkpt>
      <trkpt lat="43.5599" lon="6.19091">
        <ele>370.6</ele>
        <time>2014-02-12T13:45:52Z</time>
      </trkpt>
      <trkpt lat="43.55981" lon="6.1911">
        <ele>373.4</ele>
        <time>2014-02-12T13:46:17Z</time>
      </trkpt>
      <trkpt lat="43.5598" lon="6.19122">
        <ele>375</ele>
        <time>2014-02-12T13:46:31Z</time>
      </trkpt>
      <trkpt lat="43.55981" lon="6.19134">
        <ele>377.3</ele>
        <time>2014-02-12T13:46:47Z</time>
      </trkpt>
      <trkpt lat="43.55975" lon="6.19144">
        <ele>378.9</ele>
        <time>2014-02-12T13:46:58Z</time>
      </trkpt>
      <trkpt lat="43.55975" lon="6.19145">
        <ele>379.1</ele>
        <time>2014-02-12T13:46:59Z</time>
      </trkpt>
      <trkpt lat="43.55962" lon="6.19158">
        <ele>380.5</ele>
        <time>2014-02-12T13:47:20Z</time>
      </trkpt>
      <trkpt lat="43.55955" lon="6.19164">
        <ele>381.1</ele>
        <time>2014-02-12T13:47:29Z</time>
      </trkpt>
      <trkpt lat="43.55948" lon="6.19171">
        <ele>382.3</ele>
        <time>2014-02-12T13:47:36Z</time>
      </trkpt>
      <trkpt lat="43.55944" lon="6.19183">
        <ele>382.7</ele>
        <time>2014-02-12T13:47:45Z</time>
      </trkpt>
      <trkpt lat="43.55939" lon="6.1919">
        <ele>383.1</ele>
        <time>2014-02-12T13:47:52Z</time>
      </trkpt>
      <trkpt lat="43.55931" lon="6.19196">
        <ele>383.7</ele>
        <time>2014-02-12T13:47:59Z</time>
      </trkpt>
      <trkpt lat="43.5593" lon="6.19197">
        <ele>383.9</ele>
        <time>2014-02-12T13:48:00Z</time>
      </trkpt>
      <trkpt lat="43.55916" lon="6.19208">
        <ele>382.8</ele>
        <time>2014-02-12T13:48:19Z</time>
      </trkpt>
      <trkpt lat="43.55911" lon="6.19198">
        <ele>383.2</ele>
        <time>2014-02-12T13:49:45Z</time>
      </trkpt>
      <trkpt lat="43.55911" lon="6.19197">
        <ele>383</ele>
        <time>2014-02-12T13:49:46Z</time>
      </trkpt>
      <trkpt lat="43.55907" lon="6.19209">
        <ele>382.4</ele>
        <time>2014-02-12T13:51:36Z</time>
      </trkpt>
      <trkpt lat="43.55922" lon="6.19217">
        <ele>376.4</ele>
        <time>2014-02-12T13:52:34Z</time>
      </trkpt>
      <trkpt lat="43.5593" lon="6.19218">
        <ele>375</ele>
        <time>2014-02-12T13:52:46Z</time>
      </trkpt>
      <trkpt lat="43.55931" lon="6.19218">
        <ele>374.7</ele>
        <time>2014-02-12T13:52:47Z</time>
      </trkpt>
      <trkpt lat="43.55932" lon="6.19241">
        <ele>370.4</ele>
        <time>2014-02-12T13:55:01Z</time>
      </trkpt>
      <trkpt lat="43.55932" lon="6.19242">
        <ele>370.3</ele>
        <time>2014-02-12T13:55:02Z</time>
      </trkpt>
      <trkpt lat="43.55932" lon="6.19265">
        <ele>365</ele>
        <time>2014-02-12T13:55:39Z</time>
      </trkpt>
      <trkpt lat="43.55932" lon="6.19276">
        <ele>365</ele>
        <time>2014-02-12T13:55:52Z</time>
      </trkpt>
      <trkpt lat="43.55934" lon="6.19288">
        <ele>363.1</ele>
        <time>2014-02-12T13:56:08Z</time>
      </trkpt>
      <trkpt lat="43.55934" lon="6.19289">
        <ele>362.8</ele>
        <time>2014-02-12T13:56:09Z</time>
      </trkpt>
      <trkpt lat="43.55936" lon="6.19311">
        <ele>361.7</ele>
        <time>2014-02-12T13:56:35Z</time>
      </trkpt>
      <trkpt lat="43.55938" lon="6.19323">
        <ele>361.1</ele>
        <time>2014-02-12T13:56:45Z</time>
      </trkpt>
      <trkpt lat="43.55937" lon="6.19335">
        <ele>360.5</ele>
        <time>2014-02-12T13:56:59Z</time>
      </trkpt>
      <trkpt lat="43.55929" lon="6.19338">
        <ele>362.1</ele>
        <time>2014-02-12T13:59:27Z</time>
      </trkpt>
      <trkpt lat="43.55928" lon="6.19338">
        <ele>362</ele>
        <time>2014-02-12T13:59:28Z</time>
      </trkpt>
      <trkpt lat="43.55911" lon="6.19338">
        <ele>362.5</ele>
        <time>2014-02-12T13:59:57Z</time>
      </trkpt>
      <trkpt lat="43.55902" lon="6.19338">
        <ele>362.7</ele>
        <time>2014-02-12T14:00:10Z</time>
      </trkpt>
      <trkpt lat="43.55894" lon="6.19336">
        <ele>362.7</ele>
        <time>2014-02-12T14:00:21Z</time>
      </trkpt>
      <trkpt lat="43.55886" lon="6.19334">
        <ele>363.6</ele>
        <time>2014-02-12T14:00:30Z</time>
      </trkpt>
      <trkpt lat="43.55885" lon="6.19333">
        <ele>363.9</ele>
        <time>2014-02-12T14:00:31Z</time>
      </trkpt>
      <trkpt lat="43.55869" lon="6.19334">
        <ele>365</ele>
        <time>2014-02-12T14:00:52Z</time>
      </trkpt>
      <trkpt lat="43.55862" lon="6.19341">
        <ele>365.2</ele>
        <time>2014-02-12T14:01:00Z</time>
      </trkpt>
      <trkpt lat="43.55859" lon="6.19352">
        <ele>366.4</ele>
        <time>2014-02-12T14:01:10Z</time>
      </trkpt>
      <trkpt lat="43.55855" lon="6.19363">
        <ele>366.2</ele>
        <time>2014-02-12T14:01:19Z</time>
      </trkpt>
      <trkpt lat="43.55852" lon="6.19374">
        <ele>366.5</ele>
        <time>2014-02-12T14:01:28Z</time>
      </trkpt>
      <trkpt lat="43.55847" lon="6.19384">
        <ele>367.3</ele>
        <time>2014-02-12T14:01:38Z</time>
      </trkpt>
      <trkpt lat="43.55847" lon="6.19384">
        <ele>366.9</ele>
        <time>2014-02-12T14:01:39Z</time>
      </trkpt>
      <trkpt lat="43.55838" lon="6.19404">
        <ele>368.2</ele>
        <time>2014-02-12T14:02:02Z</time>
      </trkpt>
      <trkpt lat="43.55836" lon="6.19415">
        <ele>367.4</ele>
        <time>2014-02-12T14:02:15Z</time>
      </trkpt>
      <trkpt lat="43.55839" lon="6.19426">
        <ele>365.8</ele>
        <time>2014-02-12T14:02:31Z</time>
      </trkpt>
      <trkpt lat="43.55844" lon="6.19437">
        <ele>365.8</ele>
        <time>2014-02-12T14:02:47Z</time>
      </trkpt>
      <trkpt lat="43.55844" lon="6.19438">
        <ele>365.7</ele>
        <time>2014-02-12T14:02:48Z</time>
      </trkpt>
      <trkpt lat="43.55846" lon="6.1946">
        <ele>364.2</ele>
        <time>2014-02-12T14:03:02Z</time>
      </trkpt>
      <trkpt lat="43.55846" lon="6.19471">
        <ele>364.8</ele>
        <time>2014-02-12T14:03:07Z</time>
      </trkpt>
      <trkpt lat="43.55848" lon="6.19483">
        <ele>364.8</ele>
        <time>2014-02-12T14:03:14Z</time>
      </trkpt>
      <trkpt lat="43.5585" lon="6.19494">
        <ele>366.1</ele>
        <time>2014-02-12T14:03:26Z</time>
      </trkpt>
      <trkpt lat="43.55852" lon="6.19506">
        <ele>366.3</ele>
        <time>2014-02-12T14:03:36Z</time>
      </trkpt>
      <trkpt lat="43.55855" lon="6.19517">
        <ele>365.8</ele>
        <time>2014-02-12T14:03:47Z</time>
      </trkpt>
      <trkpt lat="43.55859" lon="6.19526">
        <ele>365.8</ele>
        <time>2014-02-12T14:03:56Z</time>
      </trkpt>
      <trkpt lat="43.55859" lon="6.19528">
        <ele>365.3</ele>
        <time>2014-02-12T14:03:57Z</time>
      </trkpt>
      <trkpt lat="43.55867" lon="6.19547">
        <ele>365.5</ele>
        <time>2014-02-12T14:04:17Z</time>
      </trkpt>
      <trkpt lat="43.55871" lon="6.19556">
        <ele>366.2</ele>
        <time>2014-02-12T14:04:26Z</time>
      </trkpt>
      <trkpt lat="43.55877" lon="6.19565">
        <ele>366.1</ele>
        <time>2014-02-12T14:04:34Z</time>
      </trkpt>
      <trkpt lat="43.55881" lon="6.19575">
        <ele>366.1</ele>
        <time>2014-02-12T14:04:41Z</time>
      </trkpt>
      <trkpt lat="43.55886" lon="6.19585">
        <ele>365</ele>
        <time>2014-02-12T14:04:49Z</time>
      </trkpt>
      <trkpt lat="43.55889" lon="6.19597">
        <ele>365.4</ele>
        <time>2014-02-12T14:04:58Z</time>
      </trkpt>
      <trkpt lat="43.55889" lon="6.19597">
        <ele>365.6</ele>
        <time>2014-02-12T14:04:59Z</time>
      </trkpt>
      <trkpt lat="43.55899" lon="6.19617">
        <ele>365.2</ele>
        <time>2014-02-12T14:05:16Z</time>
      </trkpt>
      <trkpt lat="43.55902" lon="6.19628">
        <ele>365.9</ele>
        <time>2014-02-12T14:05:23Z</time>
      </trkpt>
      <trkpt lat="43.55904" lon="6.19639">
        <ele>365.5</ele>
        <time>2014-02-12T14:05:30Z</time>
      </trkpt>
      <trkpt lat="43.55906" lon="6.19651">
        <ele>367</ele>
        <time>2014-02-12T14:05:40Z</time>
      </trkpt>
      <trkpt lat="43.55905" lon="6.19663">
        <ele>367.5</ele>
        <time>2014-02-12T14:05:51Z</time>
      </trkpt>
      <trkpt lat="43.55909" lon="6.19673">
        <ele>368.5</ele>
        <time>2014-02-12T14:06:00Z</time>
      </trkpt>
      <trkpt lat="43.5591" lon="6.19674">
        <ele>368.7</ele>
        <time>2014-02-12T14:06:01Z</time>
      </trkpt>
      <trkpt lat="43.55921" lon="6.19691">
        <ele>369.6</ele>
        <time>2014-02-12T14:06:18Z</time>
      </trkpt>
      <trkpt lat="43.55922" lon="6.19703">
        <ele>370.5</ele>
        <time>2014-02-12T14:06:28Z</time>
      </trkpt>
      <trkpt lat="43.55913" lon="6.19701">
        <ele>372.6</ele>
        <time>2014-02-12T14:06:43Z</time>
      </trkpt>
      <trkpt lat="43.55906" lon="6.19695">
        <ele>373.9</ele>
        <time>2014-02-12T14:06:55Z</time>
      </trkpt>
      <trkpt lat="43.55898" lon="6.1969">
        <ele>375.7</ele>
        <time>2014-02-12T14:07:05Z</time>
      </trkpt>
      <trkpt lat="43.55897" lon="6.19689">
        <ele>376.2</ele>
        <time>2014-02-12T14:07:06Z</time>
      </trkpt>
      <trkpt lat="43.55884" lon="6.19676">
        <ele>377.7</ele>
        <time>2014-02-12T14:07:24Z</time>
      </trkpt>
      <trkpt lat="43.55878" lon="6.19669">
        <ele>379.1</ele>
        <time>2014-02-12T14:07:34Z</time>
      </trkpt>
      <trkpt lat="43.55871" lon="6.19662">
        <ele>380.2</ele>
        <time>2014-02-12T14:07:43Z</time>
      </trkpt>
      <trkpt lat="43.55864" lon="6.19654">
        <ele>380.9</ele>
        <time>2014-02-12T14:07:51Z</time>
      </trkpt>
      <trkpt lat="43.55858" lon="6.19646">
        <ele>381.6</ele>
        <time>2014-02-12T14:08:00Z</time>
      </trkpt>
      <trkpt lat="43.55851" lon="6.1964">
        <ele>383.7</ele>
        <time>2014-02-12T14:08:09Z</time>
      </trkpt>
      <trkpt lat="43.5585" lon="6.19639">
        <ele>383.6</ele>
        <time>2014-02-12T14:08:10Z</time>
      </trkpt>
      <trkpt lat="43.55838" lon="6.19624">
        <ele>385.4</ele>
        <time>2014-02-12T14:08:28Z</time>
      </trkpt>
      <trkpt lat="43.55831" lon="6.19618">
        <ele>386.5</ele>
        <time>2014-02-12T14:08:38Z</time>
      </trkpt>
      <trkpt lat="43.55823" lon="6.19615">
        <ele>387.5</ele>
        <time>2014-02-12T14:08:47Z</time>
      </trkpt>
      <trkpt lat="43.55815" lon="6.1961">
        <ele>389.4</ele>
        <time>2014-02-12T14:08:56Z</time>
      </trkpt>
      <trkpt lat="43.55807" lon="6.19604">
        <ele>390.6</ele>
        <time>2014-02-12T14:09:07Z</time>
      </trkpt>
      <trkpt lat="43.55799" lon="6.19599">
        <ele>391.6</ele>
        <time>2014-02-12T14:09:16Z</time>
      </trkpt>
      <trkpt lat="43.55798" lon="6.19598">
        <ele>391.6</ele>
        <time>2014-02-12T14:09:17Z</time>
      </trkpt>
      <trkpt lat="43.55785" lon="6.19585">
        <ele>393.9</ele>
        <time>2014-02-12T14:09:35Z</time>
      </trkpt>
      <trkpt lat="43.55779" lon="6.19577">
        <ele>394.2</ele>
        <time>2014-02-12T14:09:41Z</time>
      </trkpt>
      <trkpt lat="43.55774" lon="6.19568">
        <ele>394.2</ele>
        <time>2014-02-12T14:09:48Z</time>
      </trkpt>
      <trkpt lat="43.55769" lon="6.19559">
        <ele>394.5</ele>
        <time>2014-02-12T14:09:56Z</time>
      </trkpt>
      <trkpt lat="43.55764" lon="6.19549">
        <ele>395.7</ele>
        <time>2014-02-12T14:10:04Z</time>
      </trkpt>
      <trkpt lat="43.55758" lon="6.19542">
        <ele>396</ele>
        <time>2014-02-12T14:10:11Z</time>
      </trkpt>
      <trkpt lat="43.55752" lon="6.19533">
        <ele>395.9</ele>
        <time>2014-02-12T14:10:19Z</time>
      </trkpt>
      <trkpt lat="43.55752" lon="6.19532">
        <ele>396.1</ele>
        <time>2014-02-12T14:10:20Z</time>
      </trkpt>
      <trkpt lat="43.55743" lon="6.19513">
        <ele>396.3</ele>
        <time>2014-02-12T14:10:37Z</time>
      </trkpt>
      <trkpt lat="43.55741" lon="6.19501">
        <ele>396.7</ele>
        <time>2014-02-12T14:10:44Z</time>
      </trkpt>
      <trkpt lat="43.55741" lon="6.1949">
        <ele>397.9</ele>
        <time>2014-02-12T14:10:51Z</time>
      </trkpt>
      <trkpt lat="43.55742" lon="6.19479">
        <ele>398.7</ele>
        <time>2014-02-12T14:10:58Z</time>
      </trkpt>
      <trkpt lat="43.55743" lon="6.19468">
        <ele>399.6</ele>
        <time>2014-02-12T14:11:06Z</time>
      </trkpt>
      <trkpt lat="43.55743" lon="6.19457">
        <ele>400.2</ele>
        <time>2014-02-12T14:11:14Z</time>
      </trkpt>
      <trkpt lat="43.55743" lon="6.19446">
        <ele>401.5</ele>
        <time>2014-02-12T14:11:21Z</time>
      </trkpt>
      <trkpt lat="43.55743" lon="6.19444">
        <ele>401</ele>
        <time>2014-02-12T14:11:22Z</time>
      </trkpt>
      <trkpt lat="43.55739" lon="6.19424">
        <ele>402</ele>
        <time>2014-02-12T14:11:37Z</time>
      </trkpt>
      <trkpt lat="43.55737" lon="6.19412">
        <ele>403.2</ele>
        <time>2014-02-12T14:11:47Z</time>
      </trkpt>
      <trkpt lat="43.55733" lon="6.19403">
        <ele>404.7</ele>
        <time>2014-02-12T14:11:54Z</time>
      </trkpt>
      <trkpt lat="43.55728" lon="6.19392">
        <ele>404.7</ele>
        <time>2014-02-12T14:12:03Z</time>
      </trkpt>
      <trkpt lat="43.55726" lon="6.1938">
        <ele>405.9</ele>
        <time>2014-02-12T14:12:13Z</time>
      </trkpt>
      <trkpt lat="43.5572" lon="6.19372">
        <ele>407</ele>
        <time>2014-02-12T14:12:22Z</time>
      </trkpt>
      <trkpt lat="43.5572" lon="6.19371">
        <ele>407.1</ele>
        <time>2014-02-12T14:12:23Z</time>
      </trkpt>
      <trkpt lat="43.55716" lon="6.19349">
        <ele>409.1</ele>
        <time>2014-02-12T14:12:38Z</time>
      </trkpt>
      <trkpt lat="43.55714" lon="6.19337">
        <ele>410.3</ele>
        <time>2014-02-12T14:12:46Z</time>
      </trkpt>
      <trkpt lat="43.55709" lon="6.19326">
        <ele>409.9</ele>
        <time>2014-02-12T14:12:55Z</time>
      </trkpt>
      <trkpt lat="43.55705" lon="6.19317">
        <ele>410.2</ele>
        <time>2014-02-12T14:13:04Z</time>
      </trkpt>
      <trkpt lat="43.55697" lon="6.19312">
        <ele>410.1</ele>
        <time>2014-02-12T14:13:15Z</time>
      </trkpt>
      <trkpt lat="43.55691" lon="6.19303">
        <ele>409.9</ele>
        <time>2014-02-12T14:17:03Z</time>
      </trkpt>
      <trkpt lat="43.55691" lon="6.19303">
        <ele>409.8</ele>
        <time>2014-02-12T14:17:04Z</time>
      </trkpt>
      <trkpt lat="43.55681" lon="6.19299">
        <ele>409.5</ele>
        <time>2014-02-12T14:18:44Z</time>
      </trkpt>
      <trkpt lat="43.55665" lon="6.19292">
        <ele>408.7</ele>
        <time>2014-02-12T14:18:59Z</time>
      </trkpt>
      <trkpt lat="43.55657" lon="6.1929">
        <ele>408.4</ele>
        <time>2014-02-12T14:19:06Z</time>
      </trkpt>
      <trkpt lat="43.55649" lon="6.19292">
        <ele>408</ele>
        <time>2014-02-12T14:19:14Z</time>
      </trkpt>
      <trkpt lat="43.5564" lon="6.19294">
        <ele>407.2</ele>
        <time>2014-02-12T14:19:23Z</time>
      </trkpt>
      <trkpt lat="43.55632" lon="6.19299">
        <ele>405.9</ele>
        <time>2014-02-12T14:19:32Z</time>
      </trkpt>
      <trkpt lat="43.55625" lon="6.19303">
        <ele>405.3</ele>
        <time>2014-02-12T14:19:39Z</time>
      </trkpt>
      <trkpt lat="43.55617" lon="6.19306">
        <ele>405.9</ele>
        <time>2014-02-12T14:19:46Z</time>
      </trkpt>
      <trkpt lat="43.55616" lon="6.19307">
        <ele>405.7</ele>
        <time>2014-02-12T14:19:47Z</time>
      </trkpt>
      <trkpt lat="43.55602" lon="6.19317">
        <ele>405.2</ele>
        <time>2014-02-12T14:20:00Z</time>
      </trkpt>
      <trkpt lat="43.55595" lon="6.19323">
        <ele>405.2</ele>
        <time>2014-02-12T14:20:07Z</time>
      </trkpt>
      <trkpt lat="43.55589" lon="6.19329">
        <ele>404.8</ele>
        <time>2014-02-12T14:20:13Z</time>
      </trkpt>
      <trkpt lat="43.55581" lon="6.19335">
        <ele>403.5</ele>
        <time>2014-02-12T14:20:19Z</time>
      </trkpt>
      <trkpt lat="43.55574" lon="6.19339">
        <ele>402.7</ele>
        <time>2014-02-12T14:20:25Z</time>
      </trkpt>
      <trkpt lat="43.55565" lon="6.1934">
        <ele>402.9</ele>
        <time>2014-02-12T14:20:31Z</time>
      </trkpt>
      <trkpt lat="43.55559" lon="6.19339">
        <ele>403.4</ele>
        <time>2014-02-12T14:20:37Z</time>
      </trkpt>
      <trkpt lat="43.5555" lon="6.1934">
        <ele>403.3</ele>
        <time>2014-02-12T14:20:41Z</time>
      </trkpt>
      <trkpt lat="43.55542" lon="6.19336">
        <ele>404</ele>
        <time>2014-02-12T14:20:48Z</time>
      </trkpt>
      <trkpt lat="43.55541" lon="6.19335">
        <ele>403.9</ele>
        <time>2014-02-12T14:20:49Z</time>
      </trkpt>
      <trkpt lat="43.55526" lon="6.19336">
        <ele>401.7</ele>
        <time>2014-02-12T14:21:05Z</time>
      </trkpt>
      <trkpt lat="43.55519" lon="6.19342">
        <ele>400.9</ele>
        <time>2014-02-12T14:21:12Z</time>
      </trkpt>
      <trkpt lat="43.55512" lon="6.19347">
        <ele>400.7</ele>
        <time>2014-02-12T14:21:21Z</time>
      </trkpt>
      <trkpt lat="43.55504" lon="6.1935">
        <ele>401</ele>
        <time>2014-02-12T14:21:27Z</time>
      </trkpt>
      <trkpt lat="43.55496" lon="6.1935">
        <ele>400.6</ele>
        <time>2014-02-12T14:21:35Z</time>
      </trkpt>
      <trkpt lat="43.55487" lon="6.19348">
        <ele>400.1</ele>
        <time>2014-02-12T14:21:43Z</time>
      </trkpt>
      <trkpt lat="43.55479" lon="6.19345">
        <ele>401.1</ele>
        <time>2014-02-12T14:21:51Z</time>
      </trkpt>
      <trkpt lat="43.55478" lon="6.19345">
        <ele>400.5</ele>
        <time>2014-02-12T14:21:52Z</time>
      </trkpt>
      <trkpt lat="43.55462" lon="6.19342">
        <ele>399.2</ele>
        <time>2014-02-12T14:22:07Z</time>
      </trkpt>
      <trkpt lat="43.55455" lon="6.19338">
        <ele>398.9</ele>
        <time>2014-02-12T14:22:14Z</time>
      </trkpt>
      <trkpt lat="43.55448" lon="6.19333">
        <ele>399.4</ele>
        <time>2014-02-12T14:22:19Z</time>
      </trkpt>
      <trkpt lat="43.55441" lon="6.19327">
        <ele>397.1</ele>
        <time>2014-02-12T14:22:25Z</time>
      </trkpt>
      <trkpt lat="43.55434" lon="6.1932">
        <ele>397.2</ele>
        <time>2014-02-12T14:22:31Z</time>
      </trkpt>
      <trkpt lat="43.55426" lon="6.19313">
        <ele>396.4</ele>
        <time>2014-02-12T14:22:38Z</time>
      </trkpt>
      <trkpt lat="43.5542" lon="6.19308">
        <ele>396.6</ele>
        <time>2014-02-12T14:22:44Z</time>
      </trkpt>
      <trkpt lat="43.55413" lon="6.19302">
        <ele>395.5</ele>
        <time>2014-02-12T14:22:50Z</time>
      </trkpt>
      <trkpt lat="43.55407" lon="6.19295">
        <ele>395</ele>
        <time>2014-02-12T14:22:56Z</time>
      </trkpt>
      <trkpt lat="43.55406" lon="6.19293">
        <ele>395.3</ele>
        <time>2014-02-12T14:22:57Z</time>
      </trkpt>
      <trkpt lat="43.55394" lon="6.1928">
        <ele>394.3</ele>
        <time>2014-02-12T14:23:10Z</time>
      </trkpt>
      <trkpt lat="43.55386" lon="6.19275">
        <ele>393</ele>
        <time>2014-02-12T14:23:17Z</time>
      </trkpt>
      <trkpt lat="43.55378" lon="6.19271">
        <ele>391.6</ele>
        <time>2014-02-12T14:23:24Z</time>
      </trkpt>
      <trkpt lat="43.55371" lon="6.19267">
        <ele>390.3</ele>
        <time>2014-02-12T14:23:32Z</time>
      </trkpt>
      <trkpt lat="43.55362" lon="6.19271">
        <ele>388.4</ele>
        <time>2014-02-12T14:23:40Z</time>
      </trkpt>
      <trkpt lat="43.55354" lon="6.19268">
        <ele>387.9</ele>
        <time>2014-02-12T14:23:47Z</time>
      </trkpt>
      <trkpt lat="43.55346" lon="6.19263">
        <ele>386</ele>
        <time>2014-02-12T14:23:56Z</time>
      </trkpt>
      <trkpt lat="43.55345" lon="6.19251">
        <ele>385.5</ele>
        <time>2014-02-12T14:24:11Z</time>
      </trkpt>
      <trkpt lat="43.55345" lon="6.19251">
        <ele>385.4</ele>
        <time>2014-02-12T14:24:12Z</time>
      </trkpt>
      <trkpt lat="43.55329" lon="6.19257">
        <ele>381.8</ele>
        <time>2014-02-12T14:24:45Z</time>
      </trkpt>
      <trkpt lat="43.55321" lon="6.19259">
        <ele>379.2</ele>
        <time>2014-02-12T14:24:54Z</time>
      </trkpt>
      <trkpt lat="43.55313" lon="6.19257">
        <ele>377.4</ele>
        <time>2014-02-12T14:25:02Z</time>
      </trkpt>
      <trkpt lat="43.55305" lon="6.19257">
        <ele>375.4</ele>
        <time>2014-02-12T14:25:09Z</time>
      </trkpt>
      <trkpt lat="43.55296" lon="6.1926">
        <ele>373.5</ele>
        <time>2014-02-12T14:25:18Z</time>
      </trkpt>
      <trkpt lat="43.55295" lon="6.1926">
        <ele>373.3</ele>
        <time>2014-02-12T14:25:19Z</time>
      </trkpt>
      <trkpt lat="43.5528" lon="6.19257">
        <ele>371.4</ele>
        <time>2014-02-12T14:25:36Z</time>
      </trkpt>
      <trkpt lat="43.55272" lon="6.19253">
        <ele>368.8</ele>
        <time>2014-02-12T14:25:44Z</time>
      </trkpt>
      <trkpt lat="43.55265" lon="6.19249">
        <ele>368.2</ele>
        <time>2014-02-12T14:25:51Z</time>
      </trkpt>
      <trkpt lat="43.55258" lon="6.19243">
        <ele>366</ele>
        <time>2014-02-12T14:25:58Z</time>
      </trkpt>
      <trkpt lat="43.5525" lon="6.19239">
        <ele>364.7</ele>
        <time>2014-02-12T14:26:05Z</time>
      </trkpt>
      <trkpt lat="43.55241" lon="6.19236">
        <ele>364.8</ele>
        <time>2014-02-12T14:26:12Z</time>
      </trkpt>
      <trkpt lat="43.55234" lon="6.19233">
        <ele>363.4</ele>
        <time>2014-02-12T14:26:19Z</time>
      </trkpt>
      <trkpt lat="43.55232" lon="6.19232">
        <ele>363.1</ele>
        <time>2014-02-12T14:26:20Z</time>
      </trkpt>
      <trkpt lat="43.55217" lon="6.1923">
        <ele>362</ele>
        <time>2014-02-12T14:26:33Z</time>
      </trkpt>
      <trkpt lat="43.55209" lon="6.1923">
        <ele>362</ele>
        <time>2014-02-12T14:26:40Z</time>
      </trkpt>
      <trkpt lat="43.55201" lon="6.19228">
        <ele>361.7</ele>
        <time>2014-02-12T14:26:49Z</time>
      </trkpt>
      <trkpt lat="43.55193" lon="6.19223">
        <ele>361.1</ele>
        <time>2014-02-12T14:26:57Z</time>
      </trkpt>
      <trkpt lat="43.55185" lon="6.19218">
        <ele>360.3</ele>
        <time>2014-02-12T14:27:05Z</time>
      </trkpt>
      <trkpt lat="43.55178" lon="6.19215">
        <ele>357.9</ele>
        <time>2014-02-12T14:27:12Z</time>
      </trkpt>
      <trkpt lat="43.5517" lon="6.19211">
        <ele>357.9</ele>
        <time>2014-02-12T14:27:19Z</time>
      </trkpt>
      <trkpt lat="43.55162" lon="6.19206">
        <ele>357.2</ele>
        <time>2014-02-12T14:27:27Z</time>
      </trkpt>
      <trkpt lat="43.55161" lon="6.19205">
        <ele>357.2</ele>
        <time>2014-02-12T14:27:28Z</time>
      </trkpt>
      <trkpt lat="43.55148" lon="6.19193">
        <ele>356.1</ele>
        <time>2014-02-12T14:27:45Z</time>
      </trkpt>
      <trkpt lat="43.55139" lon="6.1919">
        <ele>353.8</ele>
        <time>2014-02-12T14:27:56Z</time>
      </trkpt>
      <trkpt lat="43.55136" lon="6.19178">
        <ele>352.8</ele>
        <time>2014-02-12T14:29:30Z</time>
      </trkpt>
      <trkpt lat="43.55136" lon="6.19178">
        <ele>352.9</ele>
        <time>2014-02-12T14:29:31Z</time>
      </trkpt>
      <trkpt lat="43.55143" lon="6.19156">
        <ele>354</ele>
        <time>2014-02-12T14:30:39Z</time>
      </trkpt>
      <trkpt lat="43.55143" lon="6.19155">
        <ele>353.8</ele>
        <time>2014-02-12T14:30:40Z</time>
      </trkpt>
      <trkpt lat="43.55146" lon="6.19133">
        <ele>354.1</ele>
        <time>2014-02-12T14:31:00Z</time>
      </trkpt>
      <trkpt lat="43.55147" lon="6.19121">
        <ele>353.5</ele>
        <time>2014-02-12T14:31:08Z</time>
      </trkpt>
      <trkpt lat="43.55149" lon="6.1911">
        <ele>354.3</ele>
        <time>2014-02-12T14:31:17Z</time>
      </trkpt>
      <trkpt lat="43.55151" lon="6.19098">
        <ele>354.6</ele>
        <time>2014-02-12T14:31:26Z</time>
      </trkpt>
      <trkpt lat="43.55153" lon="6.19086">
        <ele>354.3</ele>
        <time>2014-02-12T14:31:33Z</time>
      </trkpt>
      <trkpt lat="43.55155" lon="6.19075">
        <ele>354.5</ele>
        <time>2014-02-12T14:31:41Z</time>
      </trkpt>
      <trkpt lat="43.55155" lon="6.19074">
        <ele>354.6</ele>
        <time>2014-02-12T14:31:42Z</time>
      </trkpt>
      <trkpt lat="43.55145" lon="6.19057">
        <ele>354.3</ele>
        <time>2014-02-12T14:32:05Z</time>
      </trkpt>
      <trkpt lat="43.55137" lon="6.19051">
        <ele>354.1</ele>
        <time>2014-02-12T14:32:17Z</time>
      </trkpt>
      <trkpt lat="43.55129" lon="6.19047">
        <ele>354.2</ele>
        <time>2014-02-12T14:32:25Z</time>
      </trkpt>
      <trkpt lat="43.5512" lon="6.19045">
        <ele>353.3</ele>
        <time>2014-02-12T14:32:32Z</time>
      </trkpt>
      <trkpt lat="43.55112" lon="6.19042">
        <ele>353.1</ele>
        <time>2014-02-12T14:32:40Z</time>
      </trkpt>
      <trkpt lat="43.55103" lon="6.1904">
        <ele>353.1</ele>
        <time>2014-02-12T14:32:47Z</time>
      </trkpt>
      <trkpt lat="43.55102" lon="6.19039">
        <ele>353</ele>
        <time>2014-02-12T14:32:48Z</time>
      </trkpt>
      <trkpt lat="43.55087" lon="6.19035">
        <ele>351.4</ele>
        <time>2014-02-12T14:33:01Z</time>
      </trkpt>
      <trkpt lat="43.55079" lon="6.19034">
        <ele>351.3</ele>
        <time>2014-02-12T14:33:09Z</time>
      </trkpt>
      <trkpt lat="43.5507" lon="6.19033">
        <ele>349.7</ele>
        <time>2014-02-12T14:33:16Z</time>
      </trkpt>
      <trkpt lat="43.55062" lon="6.19032">
        <ele>350.9</ele>
        <time>2014-02-12T14:33:23Z</time>
      </trkpt>
      <trkpt lat="43.55054" lon="6.19028">
        <ele>350.4</ele>
        <time>2014-02-12T14:33:31Z</time>
      </trkpt>
      <trkpt lat="43.55045" lon="6.19026">
        <ele>350.9</ele>
        <time>2014-02-12T14:33:40Z</time>
      </trkpt>
      <trkpt lat="43.55037" lon="6.19024">
        <ele>351.6</ele>
        <time>2014-02-12T14:33:48Z</time>
      </trkpt>
      <trkpt lat="43.55029" lon="6.19022">
        <ele>352</ele>
        <time>2014-02-12T14:33:56Z</time>
      </trkpt>
      <trkpt lat="43.55028" lon="6.19022">
        <ele>352.1</ele>
        <time>2014-02-12T14:33:57Z</time>
      </trkpt>
      <trkpt lat="43.55012" lon="6.19019">
        <ele>353.7</ele>
        <time>2014-02-12T14:34:14Z</time>
      </trkpt>
      <trkpt lat="43.55003" lon="6.19018">
        <ele>355</ele>
        <time>2014-02-12T14:34:23Z</time>
      </trkpt>
      <trkpt lat="43.54995" lon="6.19014">
        <ele>354.9</ele>
        <time>2014-02-12T14:34:31Z</time>
      </trkpt>
      <trkpt lat="43.54987" lon="6.1901">
        <ele>355.3</ele>
        <time>2014-02-12T14:34:40Z</time>
      </trkpt>
      <trkpt lat="43.54982" lon="6.19001">
        <ele>354.8</ele>
        <time>2014-02-12T14:34:52Z</time>
      </trkpt>
      <trkpt lat="43.54974" lon="6.18993">
        <ele>355</ele>
        <time>2014-02-12T14:35:03Z</time>
      </trkpt>
      <trkpt lat="43.54974" lon="6.18993">
        <ele>355.3</ele>
        <time>2014-02-12T14:35:04Z</time>
      </trkpt>
      <trkpt lat="43.54966" lon="6.18986">
        <ele>355.3</ele>
        <time>2014-02-12T14:36:46Z</time>
      </trkpt>
      <trkpt lat="43.5495" lon="6.18981">
        <ele>355.7</ele>
        <time>2014-02-12T14:37:07Z</time>
      </trkpt>
      <trkpt lat="43.54941" lon="6.18982">
        <ele>355.6</ele>
        <time>2014-02-12T14:37:18Z</time>
      </trkpt>
      <trkpt lat="43.54933" lon="6.18986">
        <ele>356.7</ele>
        <time>2014-02-12T14:37:28Z</time>
      </trkpt>
      <trkpt lat="43.54925" lon="6.18987">
        <ele>357.4</ele>
        <time>2014-02-12T14:37:40Z</time>
      </trkpt>
      <trkpt lat="43.54916" lon="6.18984">
        <ele>358.9</ele>
        <time>2014-02-12T14:37:49Z</time>
      </trkpt>
      <trkpt lat="43.54915" lon="6.18984">
        <ele>359</ele>
        <time>2014-02-12T14:37:50Z</time>
      </trkpt>
      <trkpt lat="43.549" lon="6.18985">
        <ele>359.5</ele>
        <time>2014-02-12T14:38:06Z</time>
      </trkpt>
      <trkpt lat="43.54891" lon="6.18984">
        <ele>360.4</ele>
        <time>2014-02-12T14:38:16Z</time>
      </trkpt>
      <trkpt lat="43.54883" lon="6.18984">
        <ele>360.8</ele>
        <time>2014-02-12T14:38:26Z</time>
      </trkpt>
      <trkpt lat="43.54875" lon="6.18981">
        <ele>361.4</ele>
        <time>2014-02-12T14:38:35Z</time>
      </trkpt>
      <trkpt lat="43.54867" lon="6.18978">
        <ele>361.4</ele>
        <time>2014-02-12T14:38:42Z</time>
      </trkpt>
      <trkpt lat="43.54861" lon="6.18969">
        <ele>360.9</ele>
        <time>2014-02-12T14:38:53Z</time>
      </trkpt>
      <trkpt lat="43.54861" lon="6.18969">
        <ele>361.5</ele>
        <time>2014-02-12T14:38:54Z</time>
      </trkpt>
      <trkpt lat="43.54859" lon="6.18947">
        <ele>363.4</ele>
        <time>2014-02-12T14:39:13Z</time>
      </trkpt>
      <trkpt lat="43.5486" lon="6.18936">
        <ele>364.4</ele>
        <time>2014-02-12T14:39:21Z</time>
      </trkpt>
      <trkpt lat="43.54862" lon="6.18924">
        <ele>365.4</ele>
        <time>2014-02-12T14:39:30Z</time>
      </trkpt>
      <trkpt lat="43.54864" lon="6.18914">
        <ele>364.7</ele>
        <time>2014-02-12T14:39:38Z</time>
      </trkpt>
      <trkpt lat="43.54865" lon="6.18902">
        <ele>365.8</ele>
        <time>2014-02-12T14:39:47Z</time>
      </trkpt>
      <trkpt lat="43.54864" lon="6.1889">
        <ele>366.8</ele>
        <time>2014-02-12T14:39:59Z</time>
      </trkpt>
      <trkpt lat="43.54864" lon="6.18889">
        <ele>367.2</ele>
        <time>2014-02-12T14:40:00Z</time>
      </trkpt>
      <trkpt lat="43.54861" lon="6.18866">
        <ele>368.6</ele>
        <time>2014-02-12T14:40:20Z</time>
      </trkpt>
      <trkpt lat="43.54859" lon="6.18855">
        <ele>368.8</ele>
        <time>2014-02-12T14:40:32Z</time>
      </trkpt>
      <trkpt lat="43.54857" lon="6.18844">
        <ele>370.5</ele>
        <time>2014-02-12T14:40:38Z</time>
      </trkpt>
      <trkpt lat="43.54855" lon="6.18833">
        <ele>370.7</ele>
        <time>2014-02-12T14:40:44Z</time>
      </trkpt>
      <trkpt lat="43.54852" lon="6.18822">
        <ele>372.1</ele>
        <time>2014-02-12T14:40:52Z</time>
      </trkpt>
      <trkpt lat="43.5485" lon="6.18811">
        <ele>372.6</ele>
        <time>2014-02-12T14:41:02Z</time>
      </trkpt>
      <trkpt lat="43.54849" lon="6.1881">
        <ele>372.8</ele>
        <time>2014-02-12T14:41:03Z</time>
      </trkpt>
      <trkpt lat="43.5484" lon="6.18792">
        <ele>374.2</ele>
        <time>2014-02-12T14:41:22Z</time>
      </trkpt>
      <trkpt lat="43.54839" lon="6.18781">
        <ele>375.7</ele>
        <time>2014-02-12T14:41:30Z</time>
      </trkpt>
      <trkpt lat="43.5484" lon="6.18771">
        <ele>377.2</ele>
        <time>2014-02-12T14:41:35Z</time>
      </trkpt>
      <trkpt lat="43.54842" lon="6.18761">
        <ele>377.9</ele>
        <time>2014-02-12T14:41:39Z</time>
      </trkpt>
      <trkpt lat="43.54843" lon="6.1875">
        <ele>378.5</ele>
        <time>2014-02-12T14:41:44Z</time>
      </trkpt>
      <trkpt lat="43.54845" lon="6.18739">
        <ele>377.8</ele>
        <time>2014-02-12T14:41:50Z</time>
      </trkpt>
      <trkpt lat="43.54847" lon="6.18728">
        <ele>379.9</ele>
        <time>2014-02-12T14:41:57Z</time>
      </trkpt>
      <trkpt lat="43.5485" lon="6.18718">
        <ele>380.3</ele>
        <time>2014-02-12T14:42:04Z</time>
      </trkpt>
      <trkpt lat="43.54851" lon="6.18716">
        <ele>380.3</ele>
        <time>2014-02-12T14:42:05Z</time>
      </trkpt>
      <trkpt lat="43.5486" lon="6.18698">
        <ele>381.9</ele>
        <time>2014-02-12T14:42:26Z</time>
      </trkpt>
      <trkpt lat="43.54867" lon="6.18693">
        <ele>381.3</ele>
        <time>2014-02-12T14:43:17Z</time>
      </trkpt>
      <trkpt lat="43.54868" lon="6.18693">
        <ele>381.4</ele>
        <time>2014-02-12T14:43:18Z</time>
      </trkpt>
      <trkpt lat="43.54882" lon="6.18688">
        <ele>382.7</ele>
        <time>2014-02-12T14:45:00Z</time>
      </trkpt>
      <trkpt lat="43.54883" lon="6.18687">
        <ele>382.7</ele>
        <time>2014-02-12T14:45:01Z</time>
      </trkpt>
      <trkpt lat="43.54897" lon="6.18677">
        <ele>383.2</ele>
        <time>2014-02-12T14:45:20Z</time>
      </trkpt>
      <trkpt lat="43.54904" lon="6.18672">
        <ele>383.4</ele>
        <time>2014-02-12T14:45:29Z</time>
      </trkpt>
      <trkpt lat="43.54912" lon="6.18667">
        <ele>384.6</ele>
        <time>2014-02-12T14:45:38Z</time>
      </trkpt>
      <trkpt lat="43.5492" lon="6.18661">
        <ele>385.1</ele>
        <time>2014-02-12T14:45:47Z</time>
      </trkpt>
      <trkpt lat="43.54928" lon="6.18658">
        <ele>385.1</ele>
        <time>2014-02-12T14:45:55Z</time>
      </trkpt>
      <trkpt lat="43.54935" lon="6.18653">
        <ele>386.1</ele>
        <time>2014-02-12T14:46:03Z</time>
      </trkpt>
      <trkpt lat="43.54936" lon="6.18653">
        <ele>386.3</ele>
        <time>2014-02-12T14:46:04Z</time>
      </trkpt>
      <trkpt lat="43.54951" lon="6.18646">
        <ele>386.5</ele>
        <time>2014-02-12T14:46:17Z</time>
      </trkpt>
      <trkpt lat="43.54959" lon="6.18642">
        <ele>386.6</ele>
        <time>2014-02-12T14:46:24Z</time>
      </trkpt>
      <trkpt lat="43.54967" lon="6.18637">
        <ele>386.6</ele>
        <time>2014-02-12T14:46:31Z</time>
      </trkpt>
      <trkpt lat="43.54974" lon="6.18632">
        <ele>387.1</ele>
        <time>2014-02-12T14:46:38Z</time>
      </trkpt>
      <trkpt lat="43.54981" lon="6.18627">
        <ele>386.4</ele>
        <time>2014-02-12T14:46:45Z</time>
      </trkpt>
      <trkpt lat="43.54989" lon="6.18623">
        <ele>386.6</ele>
        <time>2014-02-12T14:46:52Z</time>
      </trkpt>
      <trkpt lat="43.54997" lon="6.18618">
        <ele>386.9</ele>
        <time>2014-02-12T14:46:59Z</time>
      </trkpt>
      <trkpt lat="43.55004" lon="6.18613">
        <ele>386.7</ele>
        <time>2014-02-12T14:47:06Z</time>
      </trkpt>
      <trkpt lat="43.55005" lon="6.18612">
        <ele>387</ele>
        <time>2014-02-12T14:47:07Z</time>
      </trkpt>
      <trkpt lat="43.55019" lon="6.18601">
        <ele>387.2</ele>
        <time>2014-02-12T14:47:21Z</time>
      </trkpt>
      <trkpt lat="43.55025" lon="6.18595">
        <ele>387.1</ele>
        <time>2014-02-12T14:47:28Z</time>
      </trkpt>
      <trkpt lat="43.55033" lon="6.1859">
        <ele>387.2</ele>
        <time>2014-02-12T14:47:35Z</time>
      </trkpt>
      <trkpt lat="43.55041" lon="6.18585">
        <ele>387.2</ele>
        <time>2014-02-12T14:47:43Z</time>
      </trkpt>
      <trkpt lat="43.55048" lon="6.1858">
        <ele>387.7</ele>
        <time>2014-02-12T14:47:51Z</time>
      </trkpt>
      <trkpt lat="43.55056" lon="6.18574">
        <ele>388</ele>
        <time>2014-02-12T14:47:59Z</time>
      </trkpt>
      <trkpt lat="43.55064" lon="6.18569">
        <ele>388</ele>
        <time>2014-02-12T14:48:07Z</time>
      </trkpt>
      <trkpt lat="43.55065" lon="6.18569">
        <ele>388.3</ele>
        <time>2014-02-12T14:48:08Z</time>
      </trkpt>
      <trkpt lat="43.55079" lon="6.18559">
        <ele>388.3</ele>
        <time>2014-02-12T14:48:21Z</time>
      </trkpt>
      <trkpt lat="43.55086" lon="6.18553">
        <ele>387.6</ele>
        <time>2014-02-12T14:48:29Z</time>
      </trkpt>
      <trkpt lat="43.55094" lon="6.18547">
        <ele>387.1</ele>
        <time>2014-02-12T14:48:36Z</time>
      </trkpt>
      <trkpt lat="43.551" lon="6.18541">
        <ele>386.9</ele>
        <time>2014-02-12T14:48:43Z</time>
      </trkpt>
      <trkpt lat="43.55108" lon="6.18536">
        <ele>386.1</ele>
        <time>2014-02-12T14:48:50Z</time>
      </trkpt>
      <trkpt lat="43.55117" lon="6.18532">
        <ele>386.3</ele>
        <time>2014-02-12T14:48:58Z</time>
      </trkpt>
      <trkpt lat="43.55125" lon="6.18529">
        <ele>385.1</ele>
        <time>2014-02-12T14:49:05Z</time>
      </trkpt>
      <trkpt lat="43.55132" lon="6.18526">
        <ele>384.2</ele>
        <time>2014-02-12T14:49:13Z</time>
      </trkpt>
      <trkpt lat="43.55134" lon="6.18525">
        <ele>383.7</ele>
        <time>2014-02-12T14:49:14Z</time>
      </trkpt>
      <trkpt lat="43.5515" lon="6.18524">
        <ele>382.4</ele>
        <time>2014-02-12T14:49:28Z</time>
      </trkpt>
      <trkpt lat="43.55158" lon="6.18523">
        <ele>382.7</ele>
        <time>2014-02-12T14:49:35Z</time>
      </trkpt>
      <trkpt lat="43.55167" lon="6.18524">
        <ele>382.2</ele>
        <time>2014-02-12T14:49:41Z</time>
      </trkpt>
      <trkpt lat="43.55175" lon="6.18525">
        <ele>380.4</ele>
        <time>2014-02-12T14:49:48Z</time>
      </trkpt>
      <trkpt lat="43.55184" lon="6.18523">
        <ele>380</ele>
        <time>2014-02-12T14:49:56Z</time>
      </trkpt>
      <trkpt lat="43.55193" lon="6.18522">
        <ele>378.8</ele>
        <time>2014-02-12T14:50:04Z</time>
      </trkpt>
      <trkpt lat="43.55201" lon="6.18521">
        <ele>378.8</ele>
        <time>2014-02-12T14:50:12Z</time>
      </trkpt>
      <trkpt lat="43.5521" lon="6.18519">
        <ele>378.4</ele>
        <time>2014-02-12T14:50:20Z</time>
      </trkpt>
      <trkpt lat="43.55211" lon="6.18519">
        <ele>378.4</ele>
        <time>2014-02-12T14:50:21Z</time>
      </trkpt>
      <trkpt lat="43.55225" lon="6.18516">
        <ele>377.6</ele>
        <time>2014-02-12T14:50:33Z</time>
      </trkpt>
      <trkpt lat="43.55233" lon="6.18516">
        <ele>377.7</ele>
        <time>2014-02-12T14:50:38Z</time>
      </trkpt>
      <trkpt lat="43.55241" lon="6.18513">
        <ele>376.5</ele>
        <time>2014-02-12T14:50:45Z</time>
      </trkpt>
      <trkpt lat="43.55249" lon="6.18508">
        <ele>377.2</ele>
        <time>2014-02-12T14:50:53Z</time>
      </trkpt>
      <trkpt lat="43.55257" lon="6.18507">
        <ele>377.9</ele>
        <time>2014-02-12T14:50:59Z</time>
      </trkpt>
      <trkpt lat="43.55265" lon="6.18503">
        <ele>378.5</ele>
        <time>2014-02-12T14:51:06Z</time>
      </trkpt>
      <trkpt lat="43.55273" lon="6.18499">
        <ele>377.8</ele>
        <time>2014-02-12T14:51:14Z</time>
      </trkpt>
      <trkpt lat="43.5528" lon="6.18493">
        <ele>377.4</ele>
        <time>2014-02-12T14:51:21Z</time>
      </trkpt>
      <trkpt lat="43.55288" lon="6.18488">
        <ele>378</ele>
        <time>2014-02-12T14:51:28Z</time>
      </trkpt>
      <trkpt lat="43.55289" lon="6.18487">
        <ele>378.1</ele>
        <time>2014-02-12T14:51:29Z</time>
      </trkpt>
      <trkpt lat="43.55303" lon="6.18478">
        <ele>379.5</ele>
        <time>2014-02-12T14:51:42Z</time>
      </trkpt>
      <trkpt lat="43.55311" lon="6.18476">
        <ele>379.6</ele>
        <time>2014-02-12T14:51:48Z</time>
      </trkpt>
      <trkpt lat="43.55319" lon="6.18472">
        <ele>381.1</ele>
        <time>2014-02-12T14:51:55Z</time>
      </trkpt>
      <trkpt lat="43.55328" lon="6.18468">
        <ele>380.7</ele>
        <time>2014-02-12T14:52:03Z</time>
      </trkpt>
      <trkpt lat="43.55336" lon="6.18463">
        <ele>381.3</ele>
        <time>2014-02-12T14:52:11Z</time>
      </trkpt>
      <trkpt lat="43.55343" lon="6.18459">
        <ele>381.8</ele>
        <time>2014-02-12T14:52:18Z</time>
      </trkpt>
      <trkpt lat="43.55351" lon="6.18453">
        <ele>382.3</ele>
        <time>2014-02-12T14:52:26Z</time>
      </trkpt>
      <trkpt lat="43.55358" lon="6.18446">
        <ele>383.3</ele>
        <time>2014-02-12T14:52:34Z</time>
      </trkpt>
      <trkpt lat="43.55359" lon="6.18445">
        <ele>383.5</ele>
        <time>2014-02-12T14:52:35Z</time>
      </trkpt>
      <trkpt lat="43.55371" lon="6.18429">
        <ele>385.9</ele>
        <time>2014-02-12T14:52:52Z</time>
      </trkpt>
      <trkpt lat="43.55376" lon="6.1842">
        <ele>386.6</ele>
        <time>2014-02-12T14:53:00Z</time>
      </trkpt>
      <trkpt lat="43.55381" lon="6.18412">
        <ele>387.5</ele>
        <time>2014-02-12T14:53:07Z</time>
      </trkpt>
      <trkpt lat="43.55387" lon="6.18404">
        <ele>387.3</ele>
        <time>2014-02-12T14:53:14Z</time>
      </trkpt>
      <trkpt lat="43.55391" lon="6.18395">
        <ele>387.9</ele>
        <time>2014-02-12T14:53:21Z</time>
      </trkpt>
      <trkpt lat="43.55397" lon="6.18386">
        <ele>388.3</ele>
        <time>2014-02-12T14:53:28Z</time>
      </trkpt>
      <trkpt lat="43.55402" lon="6.18377">
        <ele>388.7</ele>
        <time>2014-02-12T14:53:35Z</time>
      </trkpt>
      <trkpt lat="43.55403" lon="6.18376">
        <ele>389.1</ele>
        <time>2014-02-12T14:53:36Z</time>
      </trkpt>
      <trkpt lat="43.55415" lon="6.18364">
        <ele>390</ele>
        <time>2014-02-12T14:53:49Z</time>
      </trkpt>
      <trkpt lat="43.55421" lon="6.18355">
        <ele>389.9</ele>
        <time>2014-02-12T14:53:56Z</time>
      </trkpt>
      <trkpt lat="43.55427" lon="6.18346">
        <ele>391.2</ele>
        <time>2014-02-12T14:54:05Z</time>
      </trkpt>
      <trkpt lat="43.55431" lon="6.18336">
        <ele>392.3</ele>
        <time>2014-02-12T14:54:14Z</time>
      </trkpt>
      <trkpt lat="43.55434" lon="6.18324">
        <ele>392.3</ele>
        <time>2014-02-12T14:54:24Z</time>
      </trkpt>
      <trkpt lat="43.55436" lon="6.18313">
        <ele>393.3</ele>
        <time>2014-02-12T14:54:32Z</time>
      </trkpt>
      <trkpt lat="43.5544" lon="6.18303">
        <ele>394.4</ele>
        <time>2014-02-12T14:54:39Z</time>
      </trkpt>
      <trkpt lat="43.55441" lon="6.18302">
        <ele>394.8</ele>
        <time>2014-02-12T14:54:40Z</time>
      </trkpt>
      <trkpt lat="43.5545" lon="6.18284">
        <ele>395.8</ele>
        <time>2014-02-12T14:54:55Z</time>
      </trkpt>
      <trkpt lat="43.55452" lon="6.18272">
        <ele>396</ele>
        <time>2014-02-12T14:55:03Z</time>
      </trkpt>
      <trkpt lat="43.55455" lon="6.18261">
        <ele>396.3</ele>
        <time>2014-02-12T14:55:11Z</time>
      </trkpt>
      <trkpt lat="43.55459" lon="6.1825">
        <ele>396.9</ele>
        <time>2014-02-12T14:55:19Z</time>
      </trkpt>
      <trkpt lat="43.55461" lon="6.1824">
        <ele>398.1</ele>
        <time>2014-02-12T14:55:26Z</time>
      </trkpt>
      <trkpt lat="43.55464" lon="6.18229">
        <ele>398.3</ele>
        <time>2014-02-12T14:55:33Z</time>
      </trkpt>
      <trkpt lat="43.55468" lon="6.1822">
        <ele>398.2</ele>
        <time>2014-02-12T14:55:40Z</time>
      </trkpt>
      <trkpt lat="43.55474" lon="6.18212">
        <ele>398.6</ele>
        <time>2014-02-12T14:55:46Z</time>
      </trkpt>
      <trkpt lat="43.55475" lon="6.1821">
        <ele>398.8</ele>
        <time>2014-02-12T14:55:47Z</time>
      </trkpt>
      <trkpt lat="43.55485" lon="6.18194">
        <ele>398.7</ele>
        <time>2014-02-12T14:56:00Z</time>
      </trkpt>
      <trkpt lat="43.55489" lon="6.18184">
        <ele>399.3</ele>
        <time>2014-02-12T14:56:07Z</time>
      </trkpt>
      <trkpt lat="43.55495" lon="6.18176">
        <ele>400.3</ele>
        <time>2014-02-12T14:56:14Z</time>
      </trkpt>
      <trkpt lat="43.55499" lon="6.18165">
        <ele>400</ele>
        <time>2014-02-12T14:56:22Z</time>
      </trkpt>
      <trkpt lat="43.55504" lon="6.18156">
        <ele>399.9</ele>
        <time>2014-02-12T14:56:30Z</time>
      </trkpt>
      <trkpt lat="43.55511" lon="6.18148">
        <ele>400.7</ele>
        <time>2014-02-12T14:56:38Z</time>
      </trkpt>
      <trkpt lat="43.55517" lon="6.1814">
        <ele>400.5</ele>
        <time>2014-02-12T14:56:46Z</time>
      </trkpt>
      <trkpt lat="43.55522" lon="6.18131">
        <ele>400.8</ele>
        <time>2014-02-12T14:56:54Z</time>
      </trkpt>
      <trkpt lat="43.55523" lon="6.1813">
        <ele>400.4</ele>
        <time>2014-02-12T14:56:55Z</time>
      </trkpt>
      <trkpt lat="43.55536" lon="6.18118">
        <ele>403</ele>
        <time>2014-02-12T14:57:10Z</time>
      </trkpt>
      <trkpt lat="43.55543" lon="6.18113">
        <ele>402.9</ele>
        <time>2014-02-12T14:57:16Z</time>
      </trkpt>
      <trkpt lat="43.5555" lon="6.18106">
        <ele>402.5</ele>
        <time>2014-02-12T14:57:23Z</time>
      </trkpt>
      <trkpt lat="43.55557" lon="6.18099">
        <ele>402.9</ele>
        <time>2014-02-12T14:57:30Z</time>
      </trkpt>
      <trkpt lat="43.55565" lon="6.18093">
        <ele>402.9</ele>
        <time>2014-02-12T14:57:37Z</time>
      </trkpt>
      <trkpt lat="43.55572" lon="6.18087">
        <ele>402.5</ele>
        <time>2014-02-12T14:57:43Z</time>
      </trkpt>
      <trkpt lat="43.55579" lon="6.18083">
        <ele>403.1</ele>
        <time>2014-02-12T14:57:49Z</time>
      </trkpt>
      <trkpt lat="43.55586" lon="6.18077">
        <ele>403.7</ele>
        <time>2014-02-12T14:57:55Z</time>
      </trkpt>
      <trkpt lat="43.55593" lon="6.18071">
        <ele>404.1</ele>
        <time>2014-02-12T14:58:02Z</time>
      </trkpt>
      <trkpt lat="43.55594" lon="6.1807">
        <ele>404.2</ele>
        <time>2014-02-12T14:58:03Z</time>
      </trkpt>
      <trkpt lat="43.55608" lon="6.1806">
        <ele>404.7</ele>
        <time>2014-02-12T14:58:17Z</time>
      </trkpt>
      <trkpt lat="43.55616" lon="6.18055">
        <ele>405.8</ele>
        <time>2014-02-12T14:58:25Z</time>
      </trkpt>
      <trkpt lat="43.55623" lon="6.1805">
        <ele>406.2</ele>
        <time>2014-02-12T14:58:33Z</time>
      </trkpt>
      <trkpt lat="43.55631" lon="6.18045">
        <ele>406.5</ele>
        <time>2014-02-12T14:58:41Z</time>
      </trkpt>
      <trkpt lat="43.55639" lon="6.18041">
        <ele>405.8</ele>
        <time>2014-02-12T14:58:48Z</time>
      </trkpt>
      <trkpt lat="43.55647" lon="6.18037">
        <ele>406.8</ele>
        <time>2014-02-12T14:58:55Z</time>
      </trkpt>
      <trkpt lat="43.55655" lon="6.18034">
        <ele>408</ele>
        <time>2014-02-12T14:59:02Z</time>
      </trkpt>
      <trkpt lat="43.55663" lon="6.18031">
        <ele>408.1</ele>
        <time>2014-02-12T14:59:09Z</time>
      </trkpt>
      <trkpt lat="43.55665" lon="6.18031">
        <ele>408.2</ele>
        <time>2014-02-12T14:59:10Z</time>
      </trkpt>
      <trkpt lat="43.5568" lon="6.18025">
        <ele>409</ele>
        <time>2014-02-12T14:59:23Z</time>
      </trkpt>
      <trkpt lat="43.55688" lon="6.18021">
        <ele>408.9</ele>
        <time>2014-02-12T14:59:31Z</time>
      </trkpt>
      <trkpt lat="43.55696" lon="6.18017">
        <ele>408.4</ele>
        <time>2014-02-12T14:59:39Z</time>
      </trkpt>
      <trkpt lat="43.55704" lon="6.18016">
        <ele>408.8</ele>
        <time>2014-02-12T14:59:44Z</time>
      </trkpt>
      <trkpt lat="43.55711" lon="6.18015">
        <ele>408.4</ele>
        <time>2014-02-12T14:59:50Z</time>
      </trkpt>
      <trkpt lat="43.5572" lon="6.18012">
        <ele>409.1</ele>
        <time>2014-02-12T14:59:57Z</time>
      </trkpt>
      <trkpt lat="43.55728" lon="6.18008">
        <ele>408.9</ele>
        <time>2014-02-12T15:00:04Z</time>
      </trkpt>
      <trkpt lat="43.55735" lon="6.18004">
        <ele>410.2</ele>
        <time>2014-02-12T15:00:11Z</time>
      </trkpt>
      <trkpt lat="43.55736" lon="6.18003">
        <ele>410.2</ele>
        <time>2014-02-12T15:00:12Z</time>
      </trkpt>
      <trkpt lat="43.5575" lon="6.17994">
        <ele>410.4</ele>
        <time>2014-02-12T15:00:25Z</time>
      </trkpt>
      <trkpt lat="43.55758" lon="6.17988">
        <ele>411.6</ele>
        <time>2014-02-12T15:00:32Z</time>
      </trkpt>
      <trkpt lat="43.55764" lon="6.1798">
        <ele>411.3</ele>
        <time>2014-02-12T15:00:42Z</time>
      </trkpt>
      <trkpt lat="43.55772" lon="6.17973">
        <ele>412.2</ele>
        <time>2014-02-12T15:01:18Z</time>
      </trkpt>
      <trkpt lat="43.55772" lon="6.17973">
        <ele>412.2</ele>
        <time>2014-02-12T15:01:19Z</time>
      </trkpt>
      <trkpt lat="43.5578" lon="6.17968">
        <ele>413</ele>
        <time>2014-02-12T15:03:00Z</time>
      </trkpt>
      <trkpt lat="43.55789" lon="6.17948">
        <ele>415.5</ele>
        <time>2014-02-12T15:04:10Z</time>
      </trkpt>
      <trkpt lat="43.55789" lon="6.17947">
        <ele>415.5</ele>
        <time>2014-02-12T15:04:11Z</time>
      </trkpt>
      <trkpt lat="43.55802" lon="6.17933">
        <ele>417.4</ele>
        <time>2014-02-12T15:04:28Z</time>
      </trkpt>
      <trkpt lat="43.55809" lon="6.17926">
        <ele>419</ele>
        <time>2014-02-12T15:04:37Z</time>
      </trkpt>
      <trkpt lat="43.55815" lon="6.17918">
        <ele>419.4</ele>
        <time>2014-02-12T15:04:45Z</time>
      </trkpt>
      <trkpt lat="43.55819" lon="6.17908">
        <ele>421</ele>
        <time>2014-02-12T15:04:54Z</time>
      </trkpt>
      <trkpt lat="43.55823" lon="6.17898">
        <ele>421</ele>
        <time>2014-02-12T15:05:03Z</time>
      </trkpt>
      <trkpt lat="43.5583" lon="6.1789">
        <ele>421</ele>
        <time>2014-02-12T15:05:12Z</time>
      </trkpt>
      <trkpt lat="43.55831" lon="6.1789">
        <ele>421.5</ele>
        <time>2014-02-12T15:05:13Z</time>
      </trkpt>
      <trkpt lat="43.55843" lon="6.17875">
        <ele>422.6</ele>
        <time>2014-02-12T15:05:38Z</time>
      </trkpt>
      <trkpt lat="43.55847" lon="6.17865">
        <ele>423.4</ele>
        <time>2014-02-12T15:05:53Z</time>
      </trkpt>
      <trkpt lat="43.55853" lon="6.17857">
        <ele>425</ele>
        <time>2014-02-12T15:06:03Z</time>
      </trkpt>
      <trkpt lat="43.55857" lon="6.17846">
        <ele>425.4</ele>
        <time>2014-02-12T15:06:12Z</time>
      </trkpt>
      <trkpt lat="43.55862" lon="6.17836">
        <ele>426.8</ele>
        <time>2014-02-12T15:06:22Z</time>
      </trkpt>
      <trkpt lat="43.55862" lon="6.17835">
        <ele>426.5</ele>
        <time>2014-02-12T15:06:23Z</time>
      </trkpt>
      <trkpt lat="43.5587" lon="6.17815">
        <ele>429.2</ele>
        <time>2014-02-12T15:06:42Z</time>
      </trkpt>
      <trkpt lat="43.55874" lon="6.17805">
        <ele>430.5</ele>
        <time>2014-02-12T15:06:52Z</time>
      </trkpt>
      <trkpt lat="43.55877" lon="6.17794">
        <ele>431.3</ele>
        <time>2014-02-12T15:06:59Z</time>
      </trkpt>
      <trkpt lat="43.5588" lon="6.17784">
        <ele>431</ele>
        <time>2014-02-12T15:07:07Z</time>
      </trkpt>
      <trkpt lat="43.55885" lon="6.17775">
        <ele>431.5</ele>
        <time>2014-02-12T15:07:14Z</time>
      </trkpt>
      <trkpt lat="43.55892" lon="6.17768">
        <ele>433.3</ele>
        <time>2014-02-12T15:07:21Z</time>
      </trkpt>
      <trkpt lat="43.55899" lon="6.17761">
        <ele>434</ele>
        <time>2014-02-12T15:07:28Z</time>
      </trkpt>
      <trkpt lat="43.559" lon="6.1776">
        <ele>434.1</ele>
        <time>2014-02-12T15:07:29Z</time>
      </trkpt>
      <trkpt lat="43.55914" lon="6.17751">
        <ele>436</ele>
        <time>2014-02-12T15:07:42Z</time>
      </trkpt>
      <trkpt lat="43.55922" lon="6.17747">
        <ele>436.4</ele>
        <time>2014-02-12T15:07:51Z</time>
      </trkpt>
      <trkpt lat="43.55929" lon="6.17741">
        <ele>436.8</ele>
        <time>2014-02-12T15:07:59Z</time>
      </trkpt>
      <trkpt lat="43.55937" lon="6.17736">
        <ele>438.1</ele>
        <time>2014-02-12T15:08:08Z</time>
      </trkpt>
      <trkpt lat="43.55945" lon="6.17732">
        <ele>439.3</ele>
        <time>2014-02-12T15:08:16Z</time>
      </trkpt>
      <trkpt lat="43.55953" lon="6.17727">
        <ele>440.2</ele>
        <time>2014-02-12T15:08:25Z</time>
      </trkpt>
      <trkpt lat="43.55961" lon="6.17727">
        <ele>441.8</ele>
        <time>2014-02-12T15:08:34Z</time>
      </trkpt>
      <trkpt lat="43.55962" lon="6.17727">
        <ele>442.1</ele>
        <time>2014-02-12T15:08:35Z</time>
      </trkpt>
      <trkpt lat="43.55978" lon="6.1773">
        <ele>444.2</ele>
        <time>2014-02-12T15:08:51Z</time>
      </trkpt>
      <trkpt lat="43.55987" lon="6.17731">
        <ele>445.3</ele>
        <time>2014-02-12T15:08:57Z</time>
      </trkpt>
      <trkpt lat="43.55995" lon="6.17729">
        <ele>447.1</ele>
        <time>2014-02-12T15:09:04Z</time>
      </trkpt>
      <trkpt lat="43.56003" lon="6.17726">
        <ele>447.1</ele>
        <time>2014-02-12T15:09:11Z</time>
      </trkpt>
      <trkpt lat="43.56012" lon="6.17722">
        <ele>448</ele>
        <time>2014-02-12T15:09:18Z</time>
      </trkpt>
      <trkpt lat="43.5602" lon="6.17718">
        <ele>448.5</ele>
        <time>2014-02-12T15:09:25Z</time>
      </trkpt>
      <trkpt lat="43.56028" lon="6.17713">
        <ele>448.5</ele>
        <time>2014-02-12T15:09:32Z</time>
      </trkpt>
      <trkpt lat="43.56036" lon="6.17709">
        <ele>448.7</ele>
        <time>2014-02-12T15:09:39Z</time>
      </trkpt>
      <trkpt lat="43.56038" lon="6.17708">
        <ele>449</ele>
        <time>2014-02-12T15:09:40Z</time>
      </trkpt>
      <trkpt lat="43.56052" lon="6.177">
        <ele>448.7</ele>
        <time>2014-02-12T15:09:54Z</time>
      </trkpt>
      <trkpt lat="43.56061" lon="6.17696">
        <ele>448.5</ele>
        <time>2014-02-12T15:10:01Z</time>
      </trkpt>
      <trkpt lat="43.56069" lon="6.17692">
        <ele>447.1</ele>
        <time>2014-02-12T15:10:08Z</time>
      </trkpt>
      <trkpt lat="43.56077" lon="6.17689">
        <ele>446.8</ele>
        <time>2014-02-12T15:10:15Z</time>
      </trkpt>
      <trkpt lat="43.56085" lon="6.17688">
        <ele>446</ele>
        <time>2014-02-12T15:10:22Z</time>
      </trkpt>
      <trkpt lat="43.56094" lon="6.17689">
        <ele>444.6</ele>
        <time>2014-02-12T15:10:30Z</time>
      </trkpt>
      <trkpt lat="43.56102" lon="6.1769">
        <ele>445</ele>
        <time>2014-02-12T15:10:37Z</time>
      </trkpt>
      <trkpt lat="43.5611" lon="6.17691">
        <ele>444.6</ele>
        <time>2014-02-12T15:10:43Z</time>
      </trkpt>
      <trkpt lat="43.56112" lon="6.17691">
        <ele>444.3</ele>
        <time>2014-02-12T15:10:44Z</time>
      </trkpt>
      <trkpt lat="43.56128" lon="6.17694">
        <ele>443.9</ele>
        <time>2014-02-12T15:10:58Z</time>
      </trkpt>
      <trkpt lat="43.56136" lon="6.17695">
        <ele>444.5</ele>
        <time>2014-02-12T15:11:04Z</time>
      </trkpt>
      <trkpt lat="43.56145" lon="6.17696">
        <ele>444.2</ele>
        <time>2014-02-12T15:11:11Z</time>
      </trkpt>
      <trkpt lat="43.56152" lon="6.17696">
        <ele>444.2</ele>
        <time>2014-02-12T15:11:16Z</time>
      </trkpt>
      <trkpt lat="43.5616" lon="6.17696">
        <ele>445.2</ele>
        <time>2014-02-12T15:11:22Z</time>
      </trkpt>
      <trkpt lat="43.56169" lon="6.17696">
        <ele>445.1</ele>
        <time>2014-02-12T15:11:30Z</time>
      </trkpt>
      <trkpt lat="43.56178" lon="6.17695">
        <ele>445.8</ele>
        <time>2014-02-12T15:11:39Z</time>
      </trkpt>
      <trkpt lat="43.56186" lon="6.17695">
        <ele>445.6</ele>
        <time>2014-02-12T15:11:46Z</time>
      </trkpt>
      <trkpt lat="43.56187" lon="6.17696">
        <ele>445.5</ele>
        <time>2014-02-12T15:11:47Z</time>
      </trkpt>
      <trkpt lat="43.56203" lon="6.17694">
        <ele>447.7</ele>
        <time>2014-02-12T15:12:01Z</time>
      </trkpt>
      <trkpt lat="43.56212" lon="6.17694">
        <ele>447.5</ele>
        <time>2014-02-12T15:12:08Z</time>
      </trkpt>
      <trkpt lat="43.56219" lon="6.17695">
        <ele>447.4</ele>
        <time>2014-02-12T15:12:14Z</time>
      </trkpt>
      <trkpt lat="43.56228" lon="6.17695">
        <ele>448</ele>
        <time>2014-02-12T15:12:21Z</time>
      </trkpt>
      <trkpt lat="43.56236" lon="6.17697">
        <ele>447.8</ele>
        <time>2014-02-12T15:12:28Z</time>
      </trkpt>
      <trkpt lat="43.56244" lon="6.17698">
        <ele>449</ele>
        <time>2014-02-12T15:12:36Z</time>
      </trkpt>
      <trkpt lat="43.56253" lon="6.17697">
        <ele>449.9</ele>
        <time>2014-02-12T15:12:44Z</time>
      </trkpt>
      <trkpt lat="43.56261" lon="6.17695">
        <ele>450</ele>
        <time>2014-02-12T15:12:52Z</time>
      </trkpt>
      <trkpt lat="43.56262" lon="6.17695">
        <ele>450.3</ele>
        <time>2014-02-12T15:12:53Z</time>
      </trkpt>
      <trkpt lat="43.56278" lon="6.17688">
        <ele>450.4</ele>
        <time>2014-02-12T15:13:06Z</time>
      </trkpt>
      <trkpt lat="43.56285" lon="6.17685">
        <ele>450.1</ele>
        <time>2014-02-12T15:13:12Z</time>
      </trkpt>
      <trkpt lat="43.56293" lon="6.17681">
        <ele>449.4</ele>
        <time>2014-02-12T15:13:20Z</time>
      </trkpt>
      <trkpt lat="43.56301" lon="6.17677">
        <ele>450.2</ele>
        <time>2014-02-12T15:13:27Z</time>
      </trkpt>
      <trkpt lat="43.56309" lon="6.17673">
        <ele>450.5</ele>
        <time>2014-02-12T15:13:34Z</time>
      </trkpt>
      <trkpt lat="43.56317" lon="6.17672">
        <ele>450.2</ele>
        <time>2014-02-12T15:13:40Z</time>
      </trkpt>
      <trkpt lat="43.56325" lon="6.17667">
        <ele>451</ele>
        <time>2014-02-12T15:13:48Z</time>
      </trkpt>
      <trkpt lat="43.56333" lon="6.17662">
        <ele>451.8</ele>
        <time>2014-02-12T15:13:56Z</time>
      </trkpt>
      <trkpt lat="43.56335" lon="6.17661">
        <ele>451.7</ele>
        <time>2014-02-12T15:13:57Z</time>
      </trkpt>
      <trkpt lat="43.56347" lon="6.17647">
        <ele>453.3</ele>
        <time>2014-02-12T15:14:15Z</time>
      </trkpt>
      <trkpt lat="43.56349" lon="6.17636">
        <ele>454.1</ele>
        <time>2014-02-12T15:15:22Z</time>
      </trkpt>
      <trkpt lat="43.56349" lon="6.17635">
        <ele>454</ele>
        <time>2014-02-12T15:15:23Z</time>
      </trkpt>
      <trkpt lat="43.56344" lon="6.17614">
        <ele>452.4</ele>
        <time>2014-02-12T15:15:45Z</time>
      </trkpt>
      <trkpt lat="43.56338" lon="6.17606">
        <ele>452.5</ele>
        <time>2014-02-12T15:15:55Z</time>
      </trkpt>
      <trkpt lat="43.56339" lon="6.17595">
        <ele>451.7</ele>
        <time>2014-02-12T15:16:07Z</time>
      </trkpt>
      <trkpt lat="43.56347" lon="6.17588">
        <ele>451.7</ele>
        <time>2014-02-12T15:16:14Z</time>
      </trkpt>
      <trkpt lat="43.56354" lon="6.17592">
        <ele>452.9</ele>
        <time>2014-02-12T15:16:28Z</time>
      </trkpt>
      <trkpt lat="43.56355" lon="6.17594">
        <ele>453</ele>
        <time>2014-02-12T15:16:29Z</time>
      </trkpt>
      <trkpt lat="43.56367" lon="6.17604">
        <ele>453.1</ele>
        <time>2014-02-12T15:16:46Z</time>
      </trkpt>
      <trkpt lat="43.56375" lon="6.17599">
        <ele>453.2</ele>
        <time>2014-02-12T15:16:53Z</time>
      </trkpt>
      <trkpt lat="43.56382" lon="6.17593">
        <ele>452.6</ele>
        <time>2014-02-12T15:17:01Z</time>
      </trkpt>
      <trkpt lat="43.56389" lon="6.17585">
        <ele>452.6</ele>
        <time>2014-02-12T15:17:09Z</time>
      </trkpt>
      <trkpt lat="43.56396" lon="6.17578">
        <ele>451.9</ele>
        <time>2014-02-12T15:17:16Z</time>
      </trkpt>
      <trkpt lat="43.56404" lon="6.17572">
        <ele>452.3</ele>
        <time>2014-02-12T15:17:24Z</time>
      </trkpt>
      <trkpt lat="43.56411" lon="6.17568">
        <ele>451.7</ele>
        <time>2014-02-12T15:17:32Z</time>
      </trkpt>
      <trkpt lat="43.56412" lon="6.17567">
        <ele>451.7</ele>
        <time>2014-02-12T15:17:33Z</time>
      </trkpt>
      <trkpt lat="43.56426" lon="6.17555">
        <ele>451.4</ele>
        <time>2014-02-12T15:17:50Z</time>
      </trkpt>
      <trkpt lat="43.56435" lon="6.17554">
        <ele>451</ele>
        <time>2014-02-12T15:17:56Z</time>
      </trkpt>
      <trkpt lat="43.56443" lon="6.17551">
        <ele>451.5</ele>
        <time>2014-02-12T15:18:03Z</time>
      </trkpt>
      <trkpt lat="43.56452" lon="6.17548">
        <ele>451.8</ele>
        <time>2014-02-12T15:18:10Z</time>
      </trkpt>
      <trkpt lat="43.5646" lon="6.17545">
        <ele>451.1</ele>
        <time>2014-02-12T15:18:16Z</time>
      </trkpt>
      <trkpt lat="43.56467" lon="6.17541">
        <ele>450.3</ele>
        <time>2014-02-12T15:18:22Z</time>
      </trkpt>
      <trkpt lat="43.56475" lon="6.17536">
        <ele>451</ele>
        <time>2014-02-12T15:18:29Z</time>
      </trkpt>
      <trkpt lat="43.56483" lon="6.17537">
        <ele>451.4</ele>
        <time>2014-02-12T15:18:37Z</time>
      </trkpt>
      <trkpt lat="43.56485" lon="6.17537">
        <ele>451.6</ele>
        <time>2014-02-12T15:18:38Z</time>
      </trkpt>
      <trkpt lat="43.565" lon="6.17536">
        <ele>453.1</ele>
        <time>2014-02-12T15:18:53Z</time>
      </trkpt>
      <trkpt lat="43.56509" lon="6.17537">
        <ele>453.8</ele>
        <time>2014-02-12T15:19:03Z</time>
      </trkpt>
      <trkpt lat="43.56516" lon="6.17532">
        <ele>453.9</ele>
        <time>2014-02-12T15:19:13Z</time>
      </trkpt>
      <trkpt lat="43.56524" lon="6.17528">
        <ele>454.6</ele>
        <time>2014-02-12T15:19:23Z</time>
      </trkpt>
      <trkpt lat="43.56532" lon="6.17522">
        <ele>455.8</ele>
        <time>2014-02-12T15:19:39Z</time>
      </trkpt>
      <trkpt lat="43.56533" lon="6.17522">
        <ele>455.8</ele>
        <time>2014-02-12T15:19:40Z</time>
      </trkpt>
      <trkpt lat="43.56546" lon="6.17508">
        <ele>455.6</ele>
        <time>2014-02-12T15:20:00Z</time>
      </trkpt>
      <trkpt lat="43.56552" lon="6.175">
        <ele>456.2</ele>
        <time>2014-02-12T15:20:09Z</time>
      </trkpt>
      <trkpt lat="43.56558" lon="6.17492">
        <ele>456.3</ele>
        <time>2014-02-12T15:20:20Z</time>
      </trkpt>
      <trkpt lat="43.56566" lon="6.17485">
        <ele>456.1</ele>
        <time>2014-02-12T15:20:35Z</time>
      </trkpt>
      <trkpt lat="43.56574" lon="6.17486">
        <ele>454.9</ele>
        <time>2014-02-12T15:20:54Z</time>
      </trkpt>
      <trkpt lat="43.56575" lon="6.17485">
        <ele>455.1</ele>
        <time>2014-02-12T15:20:55Z</time>
      </trkpt>
      <trkpt lat="43.56591" lon="6.17488">
        <ele>455.9</ele>
        <time>2014-02-12T15:21:33Z</time>
      </trkpt>
      <trkpt lat="43.56596" lon="6.17478">
        <ele>456.3</ele>
        <time>2014-02-12T15:22:00Z</time>
      </trkpt>
      <trkpt lat="43.56597" lon="6.17478">
        <ele>455.9</ele>
        <time>2014-02-12T15:22:01Z</time>
      </trkpt>
      <trkpt lat="43.5661" lon="6.17491">
        <ele>455.6</ele>
        <time>2014-02-12T15:22:25Z</time>
      </trkpt>
      <trkpt lat="43.56609" lon="6.17503">
        <ele>457</ele>
        <time>2014-02-12T15:22:36Z</time>
      </trkpt>
      <trkpt lat="43.56609" lon="6.17516">
        <ele>457.3</ele>
        <time>2014-02-12T15:23:05Z</time>
      </trkpt>
      <trkpt lat="43.56609" lon="6.17516">
        <ele>457.5</ele>
        <time>2014-02-12T15:23:06Z</time>
      </trkpt>
      <trkpt lat="43.56615" lon="6.17538">
        <ele>458.3</ele>
        <time>2014-02-12T15:23:52Z</time>
      </trkpt>
      <trkpt lat="43.56612" lon="6.17549">
        <ele>459.6</ele>
        <time>2014-02-12T15:24:13Z</time>
      </trkpt>
      <trkpt lat="43.56612" lon="6.1755">
        <ele>459.8</ele>
        <time>2014-02-12T15:24:14Z</time>
      </trkpt>
      <trkpt lat="43.56603" lon="6.1757">
        <ele>461.9</ele>
        <time>2014-02-12T15:24:50Z</time>
      </trkpt>
      <trkpt lat="43.56602" lon="6.17582">
        <ele>461.9</ele>
        <time>2014-02-12T15:25:17Z</time>
      </trkpt>
      <trkpt lat="43.56602" lon="6.17583">
        <ele>461.8</ele>
        <time>2014-02-12T15:25:18Z</time>
      </trkpt>
      <trkpt lat="43.56601" lon="6.17606">
        <ele>462.3</ele>
        <time>2014-02-12T15:25:57Z</time>
      </trkpt>
      <trkpt lat="43.56595" lon="6.17614">
        <ele>462.5</ele>
        <time>2014-02-12T15:26:33Z</time>
      </trkpt>
      <trkpt lat="43.56595" lon="6.17615">
        <ele>462.5</ele>
        <time>2014-02-12T15:26:34Z</time>
      </trkpt>
      <trkpt lat="43.56587" lon="6.1762">
        <ele>462.9</ele>
        <time>2014-02-12T15:27:58Z</time>
      </trkpt>
      <trkpt lat="43.56575" lon="6.17606">
        <ele>463.1</ele>
        <time>2014-02-12T15:28:18Z</time>
      </trkpt>
      <trkpt lat="43.56569" lon="6.17597">
        <ele>462.9</ele>
        <time>2014-02-12T15:28:29Z</time>
      </trkpt>
      <trkpt lat="43.56561" lon="6.17595">
        <ele>462.8</ele>
        <time>2014-02-12T15:28:38Z</time>
      </trkpt>
      <trkpt lat="43.56555" lon="6.17586">
        <ele>461.7</ele>
        <time>2014-02-12T15:28:47Z</time>
      </trkpt>
      <trkpt lat="43.56548" lon="6.17578">
        <ele>460.1</ele>
        <time>2014-02-12T15:28:55Z</time>
      </trkpt>
      <trkpt lat="43.5654" lon="6.17576">
        <ele>460.4</ele>
        <time>2014-02-12T15:29:04Z</time>
      </trkpt>
      <trkpt lat="43.56539" lon="6.17576">
        <ele>460.3</ele>
        <time>2014-02-12T15:29:05Z</time>
      </trkpt>
      <trkpt lat="43.56523" lon="6.17578">
        <ele>457.6</ele>
        <time>2014-02-12T15:30:08Z</time>
      </trkpt>
      <trkpt lat="43.56523" lon="6.17578">
        <ele>457.5</ele>
        <time>2014-02-12T15:30:09Z</time>
      </trkpt>
      <trkpt lat="43.56508" lon="6.17588">
        <ele>455.4</ele>
        <time>2014-02-12T15:30:40Z</time>
      </trkpt>
      <trkpt lat="43.56499" lon="6.1759">
        <ele>454.5</ele>
        <time>2014-02-12T15:30:56Z</time>
      </trkpt>
      <trkpt lat="43.56491" lon="6.17594">
        <ele>454.5</ele>
        <time>2014-02-12T15:32:46Z</time>
      </trkpt>
      <trkpt lat="43.5649" lon="6.17594">
        <ele>454.5</ele>
        <time>2014-02-12T15:32:47Z</time>
      </trkpt>
      <trkpt lat="43.56503" lon="6.17579">
        <ele>458.3</ele>
        <time>2014-02-12T15:33:41Z</time>
      </trkpt>
      <trkpt lat="43.56509" lon="6.17572">
        <ele>458.4</ele>
        <time>2014-02-12T15:33:52Z</time>
      </trkpt>
      <trkpt lat="43.5651" lon="6.17571">
        <ele>458.4</ele>
        <time>2014-02-12T15:33:53Z</time>
      </trkpt>
      <trkpt lat="43.56525" lon="6.17565">
        <ele>460</ele>
        <time>2014-02-12T15:34:10Z</time>
      </trkpt>
      <trkpt lat="43.56534" lon="6.17565">
        <ele>460.6</ele>
        <time>2014-02-12T15:34:19Z</time>
      </trkpt>
      <trkpt lat="43.56541" lon="6.17569">
        <ele>461.4</ele>
        <time>2014-02-12T15:34:26Z</time>
      </trkpt>
      <trkpt lat="43.56547" lon="6.17577">
        <ele>461.4</ele>
        <time>2014-02-12T15:34:34Z</time>
      </trkpt>
      <trkpt lat="43.56556" lon="6.1758">
        <ele>462.8</ele>
        <time>2014-02-12T15:34:45Z</time>
      </trkpt>
      <trkpt lat="43.56564" lon="6.17584">
        <ele>463.7</ele>
        <time>2014-02-12T15:34:56Z</time>
      </trkpt>
      <trkpt lat="43.56564" lon="6.17585">
        <ele>463.7</ele>
        <time>2014-02-12T15:34:57Z</time>
      </trkpt>
      <trkpt lat="43.56575" lon="6.17601">
        <ele>463.9</ele>
        <time>2014-02-12T15:35:13Z</time>
      </trkpt>
      <trkpt lat="43.56583" lon="6.17602">
        <ele>463.2</ele>
        <time>2014-02-12T15:35:24Z</time>
      </trkpt>
      <trkpt lat="43.56592" lon="6.17603">
        <ele>462.3</ele>
        <time>2014-02-12T15:35:34Z</time>
      </trkpt>
      <trkpt lat="43.566" lon="6.17605">
        <ele>460.6</ele>
        <time>2014-02-12T15:35:46Z</time>
      </trkpt>
      <trkpt lat="43.56607" lon="6.17612">
        <ele>459.6</ele>
        <time>2014-02-12T15:35:59Z</time>
      </trkpt>
      <trkpt lat="43.56608" lon="6.17613">
        <ele>459.8</ele>
        <time>2014-02-12T15:36:00Z</time>
      </trkpt>
      <trkpt lat="43.56601" lon="6.17634">
        <ele>459.2</ele>
        <time>2014-02-12T15:41:11Z</time>
      </trkpt>
      <trkpt lat="43.56601" lon="6.17634">
        <ele>459.3</ele>
        <time>2014-02-12T15:41:12Z</time>
      </trkpt>
      <trkpt lat="43.5659" lon="6.17653">
        <ele>455</ele>
        <time>2014-02-12T15:41:39Z</time>
      </trkpt>
      <trkpt lat="43.56586" lon="6.17663">
        <ele>452.9</ele>
        <time>2014-02-12T15:41:49Z</time>
      </trkpt>
      <trkpt lat="43.56581" lon="6.17673">
        <ele>448.9</ele>
        <time>2014-02-12T15:42:02Z</time>
      </trkpt>
      <trkpt lat="43.56575" lon="6.17682">
        <ele>446.8</ele>
        <time>2014-02-12T15:42:12Z</time>
      </trkpt>
      <trkpt lat="43.56574" lon="6.17682">
        <ele>446.9</ele>
        <time>2014-02-12T15:42:13Z</time>
      </trkpt>
      <trkpt lat="43.5656" lon="6.17693">
        <ele>442.5</ele>
        <time>2014-02-12T15:42:30Z</time>
      </trkpt>
      <trkpt lat="43.56553" lon="6.17701">
        <ele>441.2</ele>
        <time>2014-02-12T15:42:40Z</time>
      </trkpt>
      <trkpt lat="43.56546" lon="6.17708">
        <ele>438.7</ele>
        <time>2014-02-12T15:42:51Z</time>
      </trkpt>
      <trkpt lat="43.56545" lon="6.1772">
        <ele>432.1</ele>
        <time>2014-02-12T15:43:40Z</time>
      </trkpt>
      <trkpt lat="43.56545" lon="6.1772">
        <ele>432.1</ele>
        <time>2014-02-12T15:43:41Z</time>
      </trkpt>
      <trkpt lat="43.56548" lon="6.17731">
        <ele>424.2</ele>
        <time>2014-02-12T15:44:48Z</time>
      </trkpt>
      <trkpt lat="43.56548" lon="6.17731">
        <ele>424.2</ele>
        <time>2014-02-12T15:44:49Z</time>
      </trkpt>
      <trkpt lat="43.56565" lon="6.1773">
        <ele>422.1</ele>
        <time>2014-02-12T15:45:14Z</time>
      </trkpt>
      <trkpt lat="43.56574" lon="6.17729">
        <ele>419.6</ele>
        <time>2014-02-12T15:45:25Z</time>
      </trkpt>
      <trkpt lat="43.56582" lon="6.17728">
        <ele>418.3</ele>
        <time>2014-02-12T15:45:36Z</time>
      </trkpt>
      <trkpt lat="43.56591" lon="6.17728">
        <ele>415.8</ele>
        <time>2014-02-12T15:45:49Z</time>
      </trkpt>
      <trkpt lat="43.56592" lon="6.17728">
        <ele>415.7</ele>
        <time>2014-02-12T15:45:50Z</time>
      </trkpt>
      <trkpt lat="43.56608" lon="6.17729">
        <ele>411.8</ele>
        <time>2014-02-12T15:46:15Z</time>
      </trkpt>
      <trkpt lat="43.56617" lon="6.1773">
        <ele>409.3</ele>
        <time>2014-02-12T15:46:26Z</time>
      </trkpt>
      <trkpt lat="43.56625" lon="6.17731">
        <ele>408.8</ele>
        <time>2014-02-12T15:46:40Z</time>
      </trkpt>
      <trkpt lat="43.56634" lon="6.17733">
        <ele>407.8</ele>
        <time>2014-02-12T15:46:54Z</time>
      </trkpt>
      <trkpt lat="43.56634" lon="6.17733">
        <ele>407.8</ele>
        <time>2014-02-12T15:46:55Z</time>
      </trkpt>
      <trkpt lat="43.5665" lon="6.17741">
        <ele>404.3</ele>
        <time>2014-02-12T15:47:24Z</time>
      </trkpt>
      <trkpt lat="43.56653" lon="6.17752">
        <ele>402.6</ele>
        <time>2014-02-12T15:47:51Z</time>
      </trkpt>
      <trkpt lat="43.56648" lon="6.17761">
        <ele>401.5</ele>
        <time>2014-02-12T15:48:03Z</time>
      </trkpt>
      <trkpt lat="43.56647" lon="6.17762">
        <ele>401.4</ele>
        <time>2014-02-12T15:48:04Z</time>
      </trkpt>
      <trkpt lat="43.5665" lon="6.17775">
        <ele>397.7</ele>
        <time>2014-02-12T15:48:31Z</time>
      </trkpt>
      <trkpt lat="43.56657" lon="6.17783">
        <ele>395.3</ele>
        <time>2014-02-12T15:48:47Z</time>
      </trkpt>
      <trkpt lat="43.56666" lon="6.1778">
        <ele>393.6</ele>
        <time>2014-02-12T15:48:58Z</time>
      </trkpt>
      <trkpt lat="43.56674" lon="6.17784">
        <ele>391.8</ele>
        <time>2014-02-12T15:49:09Z</time>
      </trkpt>
      <trkpt lat="43.56675" lon="6.17784">
        <ele>391.7</ele>
        <time>2014-02-12T15:49:10Z</time>
      </trkpt>
    </trkseg>
  </trk>
</gpx>